Time,TemperatureF,DewpointF,PressureIn,WindDirection,WindDirectionDegrees,WindSpeedMPH,WindSpeedGustMPH,Humidity,HourlyPrecipIn,Conditions,Clouds,dailyrainin,SoftwareType,DateUTC
2013-03-05 00:00:00,23.5,20.2,29.88,East,98,3.0,3.0,87,0.00,,,0.00,Wunderground v.1.15,2013-03-05 05:00:00,
2013-03-05 00:02:00,23.5,20.2,29.88,East,96,4.0,4.0,87,0.00,,,0.00,Wunderground v.1.15,2013-03-05 05:02:00,
2013-03-05 00:04:00,23.6,20.0,29.88,SSE,151,0.0,4.0,86,0.00,,,0.00,Wunderground v.1.15,2013-03-05 05:04:00,
2013-03-05 00:05:00,23.6,20.0,29.89,SW,215,4.0,4.0,86,0.00,,,0.00,Wunderground v.1.15,2013-03-05 05:05:00,
2013-03-05 00:07:00,23.6,20.0,29.89,SE,139,0.0,4.0,86,0.00,,,0.00,Wunderground v.1.15,2013-03-05 05:07:00,
2013-03-05 00:11:00,23.6,20.0,29.89,SSW,208,0.0,1.0,86,0.00,,,0.00,Wunderground v.1.15,2013-03-05 05:11:00,
2013-03-05 00:13:00,23.6,20.0,29.89,East,98,1.0,1.0,86,0.00,,,0.00,Wunderground v.1.15,2013-03-05 05:13:00,
2013-03-05 00:14:00,23.6,20.0,29.89,ENE,71,2.0,2.0,86,0.00,,,0.00,Wunderground v.1.15,2013-03-05 05:14:00,
2013-03-05 00:16:00,23.6,20.0,29.89,East,85,0.0,2.0,86,0.00,,,0.00,Wunderground v.1.15,2013-03-05 05:16:00,
2013-03-05 00:20:00,23.6,20.0,29.89,North,351,1.0,1.0,86,0.00,,,0.00,Wunderground v.1.15,2013-03-05 05:20:00,
2013-03-05 00:21:00,23.5,19.9,29.89,East,100,0.0,1.0,86,0.00,,,0.00,Wunderground v.1.15,2013-03-05 05:21:00,
2013-03-05 00:22:00,23.5,19.9,29.89,ESE,111,1.0,1.0,86,0.00,,,0.00,Wunderground v.1.15,2013-03-05 05:22:00,
2013-03-05 00:28:00,23.2,19.6,29.89,East,101,1.0,4.0,86,0.00,,,0.00,Wunderground v.1.15,2013-03-05 05:28:00,
2013-03-05 00:29:00,23.2,19.9,29.89,ESE,103,3.0,4.0,87,0.00,,,0.00,Wunderground v.1.15,2013-03-05 05:29:00,
2013-03-05 00:31:00,23.2,19.9,29.89,SE,131,2.0,2.0,87,0.00,,,0.00,Wunderground v.1.15,2013-03-05 05:31:00,
2013-03-05 00:35:00,23.2,19.9,29.90,ENE,76,2.0,5.0,87,0.00,,,0.00,Wunderground v.1.15,2013-03-05 05:35:00,
2013-03-05 00:36:00,23.2,19.9,29.90,ESE,105,0.0,5.0,87,0.00,,,0.00,Wunderground v.1.15,2013-03-05 05:36:00,
2013-03-05 00:37:00,23.3,20.0,29.90,ESE,103,2.0,5.0,87,0.00,,,0.00,Wunderground v.1.15,2013-03-05 05:37:00,
2013-03-05 00:38:00,23.2,19.9,29.90,SSW,193,1.0,5.0,87,0.00,,,0.00,Wunderground v.1.15,2013-03-05 05:38:00,
2013-03-05 00:42:00,23.2,19.9,29.90,NW,319,1.0,2.0,87,0.00,,,0.00,Wunderground v.1.15,2013-03-05 05:42:00,
2013-03-05 00:43:00,23.2,19.9,29.90,NNW,342,0.0,2.0,87,0.00,,,0.00,Wunderground v.1.15,2013-03-05 05:43:00,
2013-03-05 00:48:00,23.1,19.8,29.90,ESE,103,1.0,3.0,87,0.00,,,0.00,Wunderground v.1.15,2013-03-05 05:48:00,
2013-03-05 00:49:00,23.1,19.8,29.90,East,98,0.0,3.0,87,0.00,,,0.00,Wunderground v.1.15,2013-03-05 05:49:00,
2013-03-05 00:50:00,23.1,19.8,29.90,East,99,0.0,1.0,87,0.00,,,0.00,Wunderground v.1.15,2013-03-05 05:50:00,
2013-03-05 00:52:00,23.1,19.8,29.90,SE,135,0.0,1.0,87,0.00,,,0.00,Wunderground v.1.15,2013-03-05 05:52:00,
2013-03-05 00:55:00,22.9,19.6,29.91,East,101,1.0,2.0,87,0.00,,,0.00,Wunderground v.1.15,2013-03-05 05:55:00,
2013-03-05 00:56:00,22.9,19.9,29.91,SE,131,1.0,2.0,88,0.00,,,0.00,Wunderground v.1.15,2013-03-05 05:56:00,
2013-03-05 00:57:00,22.9,19.9,29.91,SE,133,1.0,2.0,88,0.00,,,0.00,Wunderground v.1.15,2013-03-05 05:57:00,
2013-03-05 01:02:00,22.9,19.9,29.91,SE,135,0.0,0.0,88,0.00,,,0.00,Wunderground v.1.15,2013-03-05 06:02:00,
2013-03-05 01:03:00,22.9,19.9,29.91,ESE,111,1.0,1.0,88,0.00,,,0.00,Wunderground v.1.15,2013-03-05 06:03:00,
2013-03-05 01:04:00,22.9,19.9,29.91,SE,131,0.0,1.0,88,0.00,,,0.00,Wunderground v.1.15,2013-03-05 06:04:00,
2013-03-05 01:05:00,22.8,19.8,29.91,ESE,115,0.0,1.0,88,0.00,,,0.00,Wunderground v.1.15,2013-03-05 06:05:00,
2013-03-05 01:10:00,22.6,19.6,29.91,East,83,1.0,1.0,88,0.00,,,0.00,Wunderground v.1.15,2013-03-05 06:10:00,
2013-03-05 01:11:00,22.5,19.5,29.91,ESE,109,0.0,0.0,88,0.00,,,0.00,Wunderground v.1.15,2013-03-05 06:11:00,
2013-03-05 01:13:00,22.5,19.5,29.91,SSW,200,0.0,0.0,88,0.00,,,0.00,Wunderground v.1.15,2013-03-05 06:13:00,
2013-03-05 01:19:00,22.5,19.7,29.91,East,83,0.0,1.0,89,0.00,,,0.00,Wunderground v.1.15,2013-03-05 06:19:00,
2013-03-05 01:20:00,22.5,19.7,29.91,East,91,0.0,1.0,89,0.00,,,0.00,Wunderground v.1.15,2013-03-05 06:20:00,
2013-03-05 01:22:00,22.5,19.7,29.91,ENE,65,0.0,0.0,89,0.00,,,0.00,Wunderground v.1.15,2013-03-05 06:22:00,
2013-03-05 01:25:00,22.4,19.6,29.91,East,101,0.0,1.0,89,0.00,,,0.00,Wunderground v.1.15,2013-03-05 06:25:00,
2013-03-05 01:28:00,22.5,19.7,29.91,NE,45,2.0,2.0,89,0.00,,,0.00,Wunderground v.1.15,2013-03-05 06:28:00,
2013-03-05 01:29:00,22.6,19.8,29.92,ESE,106,1.0,2.0,89,0.00,,,0.00,Wunderground v.1.15,2013-03-05 06:29:00,
2013-03-05 01:32:00,22.8,20.0,29.92,ESE,121,1.0,1.0,89,0.00,,,0.00,Wunderground v.1.15,2013-03-05 06:32:00,
2013-03-05 01:35:00,22.9,20.1,29.92,ESE,104,1.0,1.0,89,0.00,,,0.00,Wunderground v.1.15,2013-03-05 06:35:00,
2013-03-05 01:36:00,22.9,20.1,29.92,ESE,105,0.0,1.0,89,0.00,,,0.00,Wunderground v.1.15,2013-03-05 06:36:00,
2013-03-05 01:38:00,22.9,19.9,29.92,SE,134,0.0,1.0,88,0.00,,,0.00,Wunderground v.1.15,2013-03-05 06:38:00,
2013-03-05 01:39:00,22.9,19.9,29.92,WSW,246,0.0,1.0,88,0.00,,,0.00,Wunderground v.1.15,2013-03-05 06:39:00,
2013-03-05 01:42:00,22.9,19.9,29.92,South,191,0.0,0.0,88,0.00,,,0.00,Wunderground v.1.15,2013-03-05 06:42:00,
2013-03-05 01:43:00,22.9,19.9,29.92,South,191,0.0,0.0,88,0.00,,,0.00,Wunderground v.1.15,2013-03-05 06:43:00,
2013-03-05 01:45:00,22.9,19.9,29.92,South,184,0.0,0.0,88,0.00,,,0.00,Wunderground v.1.15,2013-03-05 06:45:00,
2013-03-05 01:46:00,22.9,19.9,29.92,East,94,0.0,0.0,88,0.00,,,0.00,Wunderground v.1.15,2013-03-05 06:46:00,
2013-03-05 01:48:00,22.9,19.9,29.92,SE,131,0.0,0.0,88,0.00,,,0.00,Wunderground v.1.15,2013-03-05 06:48:00,
2013-03-05 01:50:00,22.9,19.9,29.92,East,92,1.0,1.0,88,0.00,,,0.00,Wunderground v.1.15,2013-03-05 06:50:00,
2013-03-05 01:54:00,22.8,19.8,29.92,ESE,111,2.0,2.0,88,0.00,,,0.00,Wunderground v.1.15,2013-03-05 06:54:00,
2013-03-05 01:55:00,22.8,19.8,29.92,East,86,1.0,2.0,88,0.00,,,0.00,Wunderground v.1.15,2013-03-05 06:55:00,
2013-03-05 01:56:00,22.8,19.8,29.92,East,96,0.0,2.0,88,0.00,,,0.00,Wunderground v.1.15,2013-03-05 06:56:00,
2013-03-05 01:58:00,22.7,19.7,29.92,ENE,65,1.0,2.0,88,0.00,,,0.00,Wunderground v.1.15,2013-03-05 06:58:00,
2013-03-05 02:01:00,22.8,19.8,29.92,East,89,0.0,1.0,88,0.00,,,0.00,Wunderground v.1.15,2013-03-05 07:01:00,
2013-03-05 02:02:00,22.7,19.7,29.92,East,89,0.0,1.0,88,0.00,,,0.00,Wunderground v.1.15,2013-03-05 07:02:00,
2013-03-05 02:03:00,22.7,19.7,29.92,East,100,0.0,2.0,88,0.00,,,0.00,Wunderground v.1.15,2013-03-05 07:03:00,
2013-03-05 02:06:00,22.8,19.8,29.92,East,94,0.0,4.0,88,0.00,,,0.00,Wunderground v.1.15,2013-03-05 07:06:00,
2013-03-05 02:07:00,22.8,19.8,29.92,South,181,1.0,4.0,88,0.00,,,0.00,Wunderground v.1.15,2013-03-05 07:07:00,
2013-03-05 02:08:00,22.8,19.8,29.92,SE,144,1.0,4.0,88,0.00,,,0.00,Wunderground v.1.15,2013-03-05 07:08:00,
2013-03-05 02:11:00,22.9,19.9,29.93,East,89,1.0,1.0,88,0.00,,,0.00,Wunderground v.1.15,2013-03-05 07:11:00,
2013-03-05 02:12:00,22.9,19.9,29.92,SE,138,1.0,2.0,88,0.00,,,0.00,Wunderground v.1.15,2013-03-05 07:12:00,
2013-03-05 02:13:00,22.9,19.9,29.92,South,186,1.0,3.0,88,0.00,,,0.00,Wunderground v.1.15,2013-03-05 07:13:00,
2013-03-05 02:17:00,23.0,20.0,29.92,NE,48,2.0,3.0,88,0.00,,,0.00,Wunderground v.1.15,2013-03-05 07:17:00,
2013-03-05 02:18:00,23.0,20.0,29.92,NE,56,3.0,4.0,88,0.00,,,0.00,Wunderground v.1.15,2013-03-05 07:18:00,
2013-03-05 02:22:00,23.1,20.1,29.92,SE,131,0.0,1.0,88,0.00,,,0.00,Wunderground v.1.15,2013-03-05 07:22:00,
2013-03-05 02:23:00,23.1,20.1,29.93,WSW,255,1.0,1.0,88,0.00,,,0.00,Wunderground v.1.15,2013-03-05 07:23:00,
2013-03-05 02:27:00,23.1,20.1,29.93,SSW,207,0.0,7.0,88,0.00,,,0.00,Wunderground v.1.15,2013-03-05 07:27:00,
2013-03-05 02:28:00,23.1,20.1,29.93,SW,224,1.0,7.0,88,0.00,,,0.00,Wunderground v.1.15,2013-03-05 07:28:00,
2013-03-05 02:29:00,23.1,20.1,29.92,SW,224,0.0,7.0,88,0.00,,,0.00,Wunderground v.1.15,2013-03-05 07:29:00,
2013-03-05 02:32:00,23.0,20.0,29.93,ENE,72,1.0,4.0,88,0.00,,,0.00,Wunderground v.1.15,2013-03-05 07:32:00,
2013-03-05 02:33:00,23.0,20.0,29.93,SE,139,0.0,4.0,88,0.00,,,0.00,Wunderground v.1.15,2013-03-05 07:33:00,
2013-03-05 02:34:00,23.0,20.0,29.93,SE,131,2.0,4.0,88,0.00,,,0.00,Wunderground v.1.15,2013-03-05 07:34:00,
2013-03-05 02:37:00,23.1,20.1,29.93,ENE,68,1.0,4.0,88,0.00,,,0.00,Wunderground v.1.15,2013-03-05 07:37:00,
2013-03-05 02:38:00,23.1,20.1,29.93,SE,128,1.0,4.0,88,0.00,,,0.00,Wunderground v.1.15,2013-03-05 07:38:00,
2013-03-05 02:39:00,23.1,20.1,29.93,East,87,2.0,4.0,88,0.00,,,0.00,Wunderground v.1.15,2013-03-05 07:39:00,
2013-03-05 02:42:00,23.1,20.1,29.93,SE,129,1.0,3.0,88,0.00,,,0.00,Wunderground v.1.15,2013-03-05 07:42:00,
2013-03-05 02:43:00,23.1,20.1,29.93,South,169,1.0,4.0,88,0.00,,,0.00,Wunderground v.1.15,2013-03-05 07:43:00,
2013-03-05 02:44:00,23.1,20.1,29.93,East,86,1.0,4.0,88,0.00,,,0.00,Wunderground v.1.15,2013-03-05 07:44:00,
2013-03-05 02:47:00,23.1,20.1,29.93,East,98,0.0,4.0,88,0.00,,,0.00,Wunderground v.1.15,2013-03-05 07:47:00,
2013-03-05 02:48:00,23.1,20.1,29.93,ESE,109,2.0,4.0,88,0.00,,,0.00,Wunderground v.1.15,2013-03-05 07:48:00,
2013-03-05 02:49:00,23.0,20.0,29.93,ESE,112,2.0,4.0,88,0.00,,,0.00,Wunderground v.1.15,2013-03-05 07:49:00,
2013-03-05 02:50:00,22.9,19.9,29.93,ENE,77,2.0,4.0,88,0.00,,,0.00,Wunderground v.1.15,2013-03-05 07:50:00,
2013-03-05 02:53:00,22.8,19.8,29.93,SW,232,1.0,4.0,88,0.00,,,0.00,Wunderground v.1.15,2013-03-05 07:53:00,
2013-03-05 02:54:00,22.9,19.9,29.94,East,79,1.0,4.0,88,0.00,,,0.00,Wunderground v.1.15,2013-03-05 07:54:00,
2013-03-05 02:55:00,22.9,19.9,29.93,East,101,0.0,4.0,88,0.00,,,0.00,Wunderground v.1.15,2013-03-05 07:55:00,
2013-03-05 02:58:00,22.9,19.9,29.94,ENE,78,3.0,5.0,88,0.00,,,0.00,Wunderground v.1.15,2013-03-05 07:58:00,
2013-03-05 02:59:00,22.9,19.9,29.94,ESE,103,2.0,5.0,88,0.00,,,0.00,Wunderground v.1.15,2013-03-05 07:59:00,
2013-03-05 03:02:00,22.9,19.9,29.94,ESE,116,1.0,2.0,88,0.00,,,0.00,Wunderground v.1.15,2013-03-05 08:02:00,
2013-03-05 03:03:00,22.8,19.8,29.94,ESE,114,0.0,2.0,88,0.00,,,0.00,Wunderground v.1.15,2013-03-05 08:03:00,
2013-03-05 03:04:00,22.8,19.8,29.94,East,101,1.0,3.0,88,0.00,,,0.00,Wunderground v.1.15,2013-03-05 08:04:00,
2013-03-05 03:07:00,22.7,19.7,29.94,SE,133,0.0,3.0,88,0.00,,,0.00,Wunderground v.1.15,2013-03-05 08:07:00,
2013-03-05 03:08:00,22.7,19.9,29.94,ESE,119,0.0,3.0,89,0.00,,,0.00,Wunderground v.1.15,2013-03-05 08:08:00,
2013-03-05 03:09:00,22.7,19.9,29.94,ESE,119,0.0,3.0,89,0.00,,,0.00,Wunderground v.1.15,2013-03-05 08:09:00,
2013-03-05 03:12:00,22.7,19.9,29.94,ENE,70,2.0,3.0,89,0.00,,,0.00,Wunderground v.1.15,2013-03-05 08:12:00,
2013-03-05 03:13:00,22.7,19.9,29.94,East,82,0.0,3.0,89,0.00,,,0.00,Wunderground v.1.15,2013-03-05 08:13:00,
2013-03-05 03:14:00,22.7,19.7,29.94,East,82,0.0,3.0,88,0.00,,,0.00,Wunderground v.1.15,2013-03-05 08:14:00,
2013-03-05 03:17:00,22.7,19.9,29.94,ENE,71,2.0,3.0,89,0.00,,,0.00,Wunderground v.1.15,2013-03-05 08:17:00,
2013-03-05 03:18:00,22.7,19.9,29.94,SSE,148,1.0,3.0,89,0.00,,,0.00,Wunderground v.1.15,2013-03-05 08:18:00,
2013-03-05 03:19:00,22.7,19.9,29.95,South,188,1.0,3.0,89,0.00,,,0.00,Wunderground v.1.15,2013-03-05 08:19:00,
2013-03-05 03:20:00,22.7,19.9,29.94,SSW,195,1.0,3.0,89,0.00,,,0.00,Wunderground v.1.15,2013-03-05 08:20:00,
2013-03-05 03:22:00,22.7,19.9,29.95,SE,131,2.0,2.0,89,0.00,,,0.00,Wunderground v.1.15,2013-03-05 08:22:00,
2013-03-05 03:24:00,22.7,19.7,29.95,SE,133,0.0,2.0,88,0.00,,,0.00,Wunderground v.1.15,2013-03-05 08:24:00,
2013-03-05 03:25:00,22.6,19.6,29.95,East,90,0.0,2.0,88,0.00,,,0.00,Wunderground v.1.15,2013-03-05 08:25:00,
2013-03-05 03:28:00,22.3,19.3,29.95,South,172,0.0,4.0,88,0.00,,,0.00,Wunderground v.1.15,2013-03-05 08:28:00,
2013-03-05 03:29:00,22.3,19.3,29.95,South,172,0.0,4.0,88,0.00,,,0.00,Wunderground v.1.15,2013-03-05 08:29:00,
2013-03-05 03:30:00,22.3,19.3,29.95,SE,134,0.0,4.0,88,0.00,,,0.00,Wunderground v.1.15,2013-03-05 08:30:00,
2013-03-05 03:31:00,22.3,19.6,29.95,SE,138,0.0,1.0,89,0.00,,,0.00,Wunderground v.1.15,2013-03-05 08:31:00,
2013-03-05 03:33:00,22.3,19.8,29.95,SSW,200,0.0,3.0,90,0.00,,,0.00,Wunderground v.1.15,2013-03-05 08:33:00,
2013-03-05 03:34:00,22.4,19.9,29.95,SSW,200,0.0,3.0,90,0.00,,,0.00,Wunderground v.1.15,2013-03-05 08:34:00,
2013-03-05 03:35:00,22.4,19.9,29.95,ENE,75,2.0,3.0,90,0.00,,,0.00,Wunderground v.1.15,2013-03-05 08:35:00,
2013-03-05 03:36:00,22.4,19.6,29.95,ESE,109,0.0,3.0,89,0.00,,,0.00,Wunderground v.1.15,2013-03-05 08:36:00,
2013-03-05 03:38:00,22.4,19.6,29.95,SSE,164,0.0,3.0,89,0.00,,,0.00,Wunderground v.1.15,2013-03-05 08:38:00,
2013-03-05 03:39:00,22.3,19.6,29.95,East,88,1.0,3.0,89,0.00,,,0.00,Wunderground v.1.15,2013-03-05 08:39:00,
2013-03-05 03:40:00,22.3,19.6,29.95,ENE,60,1.0,2.0,89,0.00,,,0.00,Wunderground v.1.15,2013-03-05 08:40:00,
2013-03-05 03:41:00,22.4,19.6,29.95,ENE,61,0.0,2.0,89,0.00,,,0.00,Wunderground v.1.15,2013-03-05 08:41:00,
2013-03-05 03:43:00,22.4,19.6,29.95,NE,52,0.0,2.0,89,0.00,,,0.00,Wunderground v.1.15,2013-03-05 08:43:00,
2013-03-05 03:44:00,22.5,19.7,29.95,SE,127,1.0,2.0,89,0.00,,,0.00,Wunderground v.1.15,2013-03-05 08:44:00,
2013-03-05 03:45:00,22.5,19.7,29.95,SSE,156,2.0,2.0,89,0.00,,,0.00,Wunderground v.1.15,2013-03-05 08:45:00,
2013-03-05 03:46:00,22.5,19.7,29.95,East,82,2.0,2.0,89,0.00,,,0.00,Wunderground v.1.15,2013-03-05 08:46:00,
2013-03-05 03:48:00,22.4,19.6,29.95,ENE,63,0.0,2.0,89,0.00,,,0.00,Wunderground v.1.15,2013-03-05 08:48:00,
2013-03-05 03:49:00,22.3,19.6,29.95,ESE,116,1.0,2.0,89,0.00,,,0.00,Wunderground v.1.15,2013-03-05 08:49:00,
2013-03-05 03:50:00,22.2,19.5,29.95,NE,49,2.0,6.0,89,0.00,,,0.00,Wunderground v.1.15,2013-03-05 08:50:00,
2013-03-05 03:51:00,22.1,19.4,29.95,NE,56,0.0,6.0,89,0.00,,,0.00,Wunderground v.1.15,2013-03-05 08:51:00,
2013-03-05 03:53:00,22.0,19.3,29.95,NNW,333,1.0,6.0,89,0.00,,,0.00,Wunderground v.1.15,2013-03-05 08:53:00,
2013-03-05 03:54:00,22.0,19.3,29.95,NNW,333,0.0,6.0,89,0.00,,,0.00,Wunderground v.1.15,2013-03-05 08:54:00,
2013-03-05 03:55:00,22.0,19.5,29.95,NNW,333,0.0,6.0,90,0.00,,,0.00,Wunderground v.1.15,2013-03-05 08:55:00,
2013-03-05 03:56:00,22.0,19.3,29.95,ESE,103,1.0,6.0,89,0.00,,,0.00,Wunderground v.1.15,2013-03-05 08:56:00,
2013-03-05 03:58:00,21.9,19.4,29.95,SE,127,0.0,6.0,90,0.00,,,0.00,Wunderground v.1.15,2013-03-05 08:58:00,
2013-03-05 04:00:00,21.9,19.4,29.95,South,176,1.0,1.0,90,0.00,,,0.00,Wunderground v.1.15,2013-03-05 09:00:00,
2013-03-05 04:02:00,21.9,19.4,29.95,ESE,111,1.0,2.0,90,0.00,,,0.00,Wunderground v.1.15,2013-03-05 09:02:00,
2013-03-05 04:04:00,21.8,19.3,29.95,SSE,160,0.0,2.0,90,0.00,,,0.00,Wunderground v.1.15,2013-03-05 09:04:00,
2013-03-05 04:05:00,21.8,19.3,29.96,SSE,148,0.0,2.0,90,0.00,,,0.00,Wunderground v.1.15,2013-03-05 09:05:00,
2013-03-05 04:07:00,21.7,19.2,29.96,East,94,1.0,3.0,90,0.00,,,0.00,Wunderground v.1.15,2013-03-05 09:07:00,
2013-03-05 04:09:00,21.7,19.2,29.96,West,260,2.0,3.0,90,0.00,,,0.00,Wunderground v.1.15,2013-03-05 09:09:00,
2013-03-05 04:10:00,21.8,19.6,29.96,SW,226,1.0,3.0,91,0.00,,,0.00,Wunderground v.1.15,2013-03-05 09:10:00,
2013-03-05 04:12:00,22.0,19.8,29.96,SSW,212,0.0,4.0,91,0.00,,,0.00,Wunderground v.1.15,2013-03-05 09:12:00,
2013-03-05 04:14:00,22.2,20.0,29.96,SSW,212,3.0,4.0,91,0.00,,,0.00,Wunderground v.1.15,2013-03-05 09:14:00,
2013-03-05 04:15:00,22.5,20.3,29.96,SSW,207,1.0,4.0,91,0.00,,,0.00,Wunderground v.1.15,2013-03-05 09:15:00,
2013-03-05 04:17:00,22.7,20.2,29.96,ESE,118,0.0,4.0,90,0.00,,,0.00,Wunderground v.1.15,2013-03-05 09:17:00,
2013-03-05 04:19:00,22.7,19.9,29.96,NW,307,1.0,4.0,89,0.00,,,0.00,Wunderground v.1.15,2013-03-05 09:19:00,
2013-03-05 04:20:00,22.7,19.9,29.96,NE,54,1.0,3.0,89,0.00,,,0.00,Wunderground v.1.15,2013-03-05 09:20:00,
2013-03-05 04:22:00,22.5,19.7,29.97,East,94,1.0,3.0,89,0.00,,,0.00,Wunderground v.1.15,2013-03-05 09:22:00,
2013-03-05 04:25:00,22.3,19.6,29.97,East,94,0.0,3.0,89,0.00,,,0.00,Wunderground v.1.15,2013-03-05 09:25:00,
2013-03-05 04:27:00,22.3,19.6,29.97,SSW,202,1.0,3.0,89,0.00,,,0.00,Wunderground v.1.15,2013-03-05 09:27:00,
2013-03-05 04:28:00,22.3,19.6,29.97,South,191,2.0,3.0,89,0.00,,,0.00,Wunderground v.1.15,2013-03-05 09:28:00,
2013-03-05 04:30:00,22.4,19.9,29.97,NE,51,1.0,1.0,90,0.00,,,0.00,Wunderground v.1.15,2013-03-05 09:30:00,
2013-03-05 04:32:00,22.3,19.6,29.97,East,91,0.0,3.0,89,0.00,,,0.00,Wunderground v.1.15,2013-03-05 09:32:00,
2013-03-05 04:33:00,22.3,19.6,29.97,SE,134,1.0,3.0,89,0.00,,,0.00,Wunderground v.1.15,2013-03-05 09:33:00,
2013-03-05 04:35:00,22.3,19.6,29.97,East,96,2.0,3.0,89,0.00,,,0.00,Wunderground v.1.15,2013-03-05 09:35:00,
2013-03-05 04:38:00,22.2,19.5,29.97,SW,217,0.0,3.0,89,0.00,,,0.00,Wunderground v.1.15,2013-03-05 09:38:00,
2013-03-05 04:40:00,22.3,19.8,29.98,SW,217,0.0,1.0,90,0.00,,,0.00,Wunderground v.1.15,2013-03-05 09:40:00,
2013-03-05 04:43:00,22.2,19.7,29.98,East,80,2.0,2.0,90,0.00,,,0.00,Wunderground v.1.15,2013-03-05 09:43:00,
2013-03-05 04:45:00,22.3,19.8,29.98,East,82,0.0,3.0,90,0.00,,,0.00,Wunderground v.1.15,2013-03-05 09:45:00,
2013-03-05 04:46:00,22.3,19.8,29.98,East,83,2.0,3.0,90,0.00,,,0.00,Wunderground v.1.15,2013-03-05 09:46:00,
2013-03-05 04:48:00,22.4,19.9,29.98,ESE,116,0.0,3.0,90,0.00,,,0.00,Wunderground v.1.15,2013-03-05 09:48:00,
2013-03-05 04:51:00,22.4,19.9,29.98,WSW,249,0.0,1.0,90,0.00,,,0.00,Wunderground v.1.15,2013-03-05 09:51:00,
2013-03-05 04:53:00,22.4,19.9,29.98,WSW,249,0.0,1.0,90,0.00,,,0.00,Wunderground v.1.15,2013-03-05 09:53:00,
2013-03-05 04:56:00,22.3,19.8,29.99,WSW,249,0.0,1.0,90,0.00,,,0.00,Wunderground v.1.15,2013-03-05 09:56:00,
2013-03-05 04:58:00,22.2,19.7,29.98,WSW,249,0.0,1.0,90,0.00,,,0.00,Wunderground v.1.15,2013-03-05 09:58:00,
2013-03-05 05:02:00,22.1,19.6,29.98,WSW,249,0.0,0.0,90,0.00,,,0.00,Wunderground v.1.15,2013-03-05 10:02:00,
2013-03-05 05:03:00,22.1,19.6,29.99,WSW,249,0.0,0.0,90,0.00,,,0.00,Wunderground v.1.15,2013-03-05 10:03:00,
2013-03-05 05:04:00,22.1,19.6,29.99,WSW,249,0.0,0.0,90,0.00,,,0.00,Wunderground v.1.15,2013-03-05 10:04:00,
2013-03-05 05:07:00,21.9,19.4,29.99,WSW,249,0.0,0.0,90,0.00,,,0.00,Wunderground v.1.15,2013-03-05 10:07:00,
2013-03-05 05:08:00,21.9,19.4,29.99,East,94,2.0,2.0,90,0.00,,,0.00,Wunderground v.1.15,2013-03-05 10:08:00,
2013-03-05 05:09:00,21.9,19.4,29.99,East,94,2.0,2.0,90,0.00,,,0.00,Wunderground v.1.15,2013-03-05 10:09:00,
2013-03-05 05:12:00,22.0,19.5,29.99,ENE,67,2.0,2.0,90,0.00,,,0.00,Wunderground v.1.15,2013-03-05 10:12:00,
2013-03-05 05:13:00,21.9,19.4,29.99,ENE,75,0.0,2.0,90,0.00,,,0.00,Wunderground v.1.15,2013-03-05 10:13:00,
2013-03-05 05:14:00,21.9,19.4,30.00,ENE,75,0.0,2.0,90,0.00,,,0.00,Wunderground v.1.15,2013-03-05 10:14:00,
2013-03-05 05:17:00,21.9,19.7,30.00,ENE,75,1.0,2.0,91,0.00,,,0.00,Wunderground v.1.15,2013-03-05 10:17:00,
2013-03-05 05:19:00,21.9,19.7,30.00,WNW,292,0.0,2.0,91,0.00,,,0.00,Wunderground v.1.15,2013-03-05 10:19:00,
2013-03-05 05:22:00,22.0,19.8,30.00,West,277,1.0,1.0,91,0.00,,,0.00,Wunderground v.1.15,2013-03-05 10:22:00,
2013-03-05 05:24:00,22.1,19.9,30.00,West,277,0.0,1.0,91,0.00,,,0.00,Wunderground v.1.15,2013-03-05 10:24:00,
2013-03-05 05:25:00,22.2,20.0,30.00,West,277,0.0,1.0,91,0.00,,,0.00,Wunderground v.1.15,2013-03-05 10:25:00,
2013-03-05 05:27:00,22.4,20.2,30.00,West,277,0.0,1.0,91,0.00,,,0.00,Wunderground v.1.15,2013-03-05 10:27:00,
2013-03-05 05:28:00,22.4,20.2,30.00,West,276,0.0,1.0,91,0.00,,,0.00,Wunderground v.1.15,2013-03-05 10:28:00,
2013-03-05 05:29:00,22.5,20.3,29.99,West,277,0.0,1.0,91,0.00,,,0.00,Wunderground v.1.15,2013-03-05 10:29:00,
2013-03-05 05:30:00,22.5,20.3,30.00,SSE,159,2.0,2.0,91,0.00,,,0.00,Wunderground v.1.15,2013-03-05 10:30:00,
2013-03-05 05:32:00,22.6,20.4,30.00,WNW,298,3.0,3.0,91,0.00,,,0.00,Wunderground v.1.15,2013-03-05 10:32:00,
2013-03-05 05:33:00,22.7,20.5,30.00,WNW,300,1.0,3.0,91,0.00,,,0.00,Wunderground v.1.15,2013-03-05 10:33:00,
2013-03-05 05:34:00,22.8,20.6,30.00,NW,309,0.0,3.0,91,0.00,,,0.00,Wunderground v.1.15,2013-03-05 10:34:00,
2013-03-05 05:35:00,22.9,20.7,30.00,NW,309,0.0,3.0,91,0.00,,,0.00,Wunderground v.1.15,2013-03-05 10:35:00,
2013-03-05 05:37:00,23.1,20.6,30.00,NW,309,0.0,3.0,90,0.00,,,0.00,Wunderground v.1.15,2013-03-05 10:37:00,
2013-03-05 05:38:00,23.1,20.6,30.00,NW,309,0.0,3.0,90,0.00,,,0.00,Wunderground v.1.15,2013-03-05 10:38:00,
2013-03-05 05:39:00,23.1,20.6,30.00,NW,309,0.0,3.0,90,0.00,,,0.00,Wunderground v.1.15,2013-03-05 10:39:00,
2013-03-05 05:40:00,23.1,20.6,30.00,NW,309,0.0,0.0,90,0.00,,,0.00,Wunderground v.1.15,2013-03-05 10:40:00,
2013-03-05 05:42:00,23.1,20.6,30.00,SW,229,1.0,2.0,90,0.00,,,0.00,Wunderground v.1.15,2013-03-05 10:42:00,
2013-03-05 05:43:00,23.1,20.6,30.00,SW,229,0.0,2.0,90,0.00,,,0.00,Wunderground v.1.15,2013-03-05 10:43:00,
2013-03-05 05:44:00,23.1,20.6,30.00,SW,228,0.0,2.0,90,0.00,,,0.00,Wunderground v.1.15,2013-03-05 10:44:00,
2013-03-05 05:45:00,23.2,20.7,30.00,SSE,148,1.0,2.0,90,0.00,,,0.00,Wunderground v.1.15,2013-03-05 10:45:00,
2013-03-05 05:47:00,23.2,20.7,30.00,ESE,109,0.0,2.0,90,0.00,,,0.00,Wunderground v.1.15,2013-03-05 10:47:00,
2013-03-05 05:48:00,23.3,20.8,30.00,ESE,108,2.0,2.0,90,0.00,,,0.00,Wunderground v.1.15,2013-03-05 10:48:00,
2013-03-05 05:49:00,23.3,20.8,30.00,East,82,1.0,3.0,90,0.00,,,0.00,Wunderground v.1.15,2013-03-05 10:49:00,
2013-03-05 05:50:00,23.4,20.9,30.00,SSE,151,0.0,0.0,90,0.00,,,0.00,Wunderground v.1.15,2013-03-05 10:50:00,
2013-03-05 05:52:00,23.6,21.1,30.00,SE,139,0.0,2.0,90,0.00,,,0.00,Wunderground v.1.15,2013-03-05 10:52:00,
2013-03-05 05:53:00,23.6,21.1,30.00,SE,138,0.0,2.0,90,0.00,,,0.00,Wunderground v.1.15,2013-03-05 10:53:00,
2013-03-05 05:54:00,23.7,21.2,30.00,East,79,1.0,2.0,90,0.00,,,0.00,Wunderground v.1.15,2013-03-05 10:54:00,
2013-03-05 05:56:00,23.8,21.0,30.00,West,262,0.0,2.0,89,0.00,,,0.00,Wunderground v.1.15,2013-03-05 10:56:00,
2013-03-05 05:57:00,23.8,21.0,30.00,West,272,2.0,2.0,89,0.00,,,0.00,Wunderground v.1.15,2013-03-05 10:57:00,
2013-03-05 05:58:00,23.9,21.1,30.00,East,94,0.0,3.0,89,0.00,,,0.00,Wunderground v.1.15,2013-03-05 10:58:00,
2013-03-05 05:59:00,23.9,21.1,30.00,WSW,242,1.0,3.0,89,0.00,,,0.00,Wunderground v.1.15,2013-03-05 10:59:00,
2013-03-05 06:02:00,24.1,21.3,30.00,ENE,72,2.0,3.0,89,0.00,,,0.00,Wunderground v.1.15,2013-03-05 11:02:00,
2013-03-05 06:03:00,24.1,21.3,30.00,East,85,2.0,3.0,89,0.00,,,0.00,Wunderground v.1.15,2013-03-05 11:03:00,
2013-03-05 06:04:00,24.2,21.4,30.00,ENE,72,0.0,3.0,89,0.00,,,0.00,Wunderground v.1.15,2013-03-05 11:04:00,
2013-03-05 06:07:00,24.4,21.4,30.00,SSE,152,0.0,3.0,88,0.00,,,0.00,Wunderground v.1.15,2013-03-05 11:07:00,
2013-03-05 06:08:00,24.4,21.4,30.00,East,85,1.0,3.0,88,0.00,,,0.00,Wunderground v.1.15,2013-03-05 11:08:00,
2013-03-05 06:09:00,24.5,21.5,30.00,East,100,1.0,3.0,88,0.00,,,0.00,Wunderground v.1.15,2013-03-05 11:09:00,
2013-03-05 06:12:00,24.5,21.5,30.00,ENE,72,1.0,4.0,88,0.00,,,0.00,Wunderground v.1.15,2013-03-05 11:12:00,
2013-03-05 06:13:00,24.5,21.5,30.00,SW,235,0.0,4.0,88,0.00,,,0.00,Wunderground v.1.15,2013-03-05 11:13:00,
2013-03-05 06:14:00,24.5,21.5,30.00,SW,219,0.0,4.0,88,0.00,,,0.00,Wunderground v.1.15,2013-03-05 11:14:00,
2013-03-05 06:15:00,24.5,21.5,30.00,SW,219,0.0,4.0,88,0.00,,,0.00,Wunderground v.1.15,2013-03-05 11:15:00,
2013-03-05 06:17:00,24.5,21.5,30.00,South,176,0.0,4.0,88,0.00,,,0.00,Wunderground v.1.15,2013-03-05 11:17:00,
2013-03-05 06:18:00,24.5,21.5,30.00,SSE,163,0.0,4.0,88,0.00,,,0.00,Wunderground v.1.15,2013-03-05 11:18:00,
2013-03-05 06:19:00,24.5,21.5,30.00,WSW,241,1.0,7.0,88,0.00,,,0.00,Wunderground v.1.15,2013-03-05 11:19:00,
2013-03-05 06:20:00,24.5,21.5,30.01,SSE,148,2.0,2.0,88,0.00,,,0.00,Wunderground v.1.15,2013-03-05 11:20:00,
2013-03-05 06:22:00,24.6,21.6,30.01,ESE,105,2.0,3.0,88,0.00,,,0.00,Wunderground v.1.15,2013-03-05 11:22:00,
2013-03-05 06:23:00,24.7,21.4,30.01,NE,37,0.0,3.0,87,0.00,,,0.00,Wunderground v.1.15,2013-03-05 11:23:00,
2013-03-05 06:24:00,24.7,21.4,30.01,ENE,68,0.0,3.0,87,0.00,,,0.00,Wunderground v.1.15,2013-03-05 11:24:00,
2013-03-05 06:25:00,24.7,21.4,30.01,SSE,158,3.0,3.0,87,0.00,,,0.00,Wunderground v.1.15,2013-03-05 11:25:00,
2013-03-05 06:27:00,24.8,21.5,30.01,NE,34,1.0,4.0,87,0.00,,,0.00,Wunderground v.1.15,2013-03-05 11:27:00,
2013-03-05 06:29:00,24.7,21.4,30.01,ESE,109,1.0,4.0,87,0.00,,,0.00,Wunderground v.1.15,2013-03-05 11:29:00,
2013-03-05 06:30:00,24.8,21.5,30.01,East,79,2.0,2.0,87,0.00,,,0.00,Wunderground v.1.15,2013-03-05 11:30:00,
2013-03-05 06:32:00,24.8,21.5,30.01,East,86,1.0,3.0,87,0.00,,,0.00,Wunderground v.1.15,2013-03-05 11:32:00,
2013-03-05 06:34:00,24.8,21.5,30.01,NNE,13,0.0,3.0,87,0.00,,,0.00,Wunderground v.1.15,2013-03-05 11:34:00,
2013-03-05 06:35:00,24.8,21.5,30.01,ESE,118,1.0,3.0,87,0.00,,,0.00,Wunderground v.1.15,2013-03-05 11:35:00,
2013-03-05 06:37:00,24.8,21.5,30.01,SE,136,0.0,3.0,87,0.00,,,0.00,Wunderground v.1.15,2013-03-05 11:37:00,
2013-03-05 06:39:00,24.8,21.5,30.01,East,94,3.0,3.0,87,0.00,,,0.00,Wunderground v.1.15,2013-03-05 11:39:00,
2013-03-05 06:40:00,24.8,21.5,30.01,ESE,114,1.0,1.0,87,0.00,,,0.00,Wunderground v.1.15,2013-03-05 11:40:00,
2013-03-05 06:43:00,24.8,21.5,30.01,East,81,1.0,3.0,87,0.00,,,0.00,Wunderground v.1.15,2013-03-05 11:43:00,
2013-03-05 06:44:00,24.8,21.5,30.01,SSE,150,0.0,3.0,87,0.00,,,0.00,Wunderground v.1.15,2013-03-05 11:44:00,
2013-03-05 06:45:00,24.8,21.5,30.01,ENE,75,1.0,3.0,87,0.00,,,0.00,Wunderground v.1.15,2013-03-05 11:45:00,
2013-03-05 06:48:00,24.8,21.5,30.01,SSE,160,1.0,3.0,87,0.00,,,0.00,Wunderground v.1.15,2013-03-05 11:48:00,
2013-03-05 06:49:00,24.8,21.5,30.01,East,90,1.0,3.0,87,0.00,,,0.00,Wunderground v.1.15,2013-03-05 11:49:00,
2013-03-05 06:50:00,24.8,21.5,30.01,East,87,2.0,2.0,87,0.00,,,0.00,Wunderground v.1.15,2013-03-05 11:50:00,
2013-03-05 06:53:00,24.8,21.5,30.02,East,98,3.0,4.0,87,0.00,,,0.00,Wunderground v.1.15,2013-03-05 11:53:00,
2013-03-05 06:54:00,24.8,21.5,30.01,West,271,1.0,4.0,87,0.00,,,0.00,Wunderground v.1.15,2013-03-05 11:54:00,
2013-03-05 06:55:00,24.8,21.5,30.02,WSW,252,0.0,4.0,87,0.00,,,0.00,Wunderground v.1.15,2013-03-05 11:55:00,
2013-03-05 06:58:00,24.8,21.5,30.01,ESE,102,1.0,4.0,87,0.00,,,0.00,Wunderground v.1.15,2013-03-05 11:58:00,
2013-03-05 06:59:00,24.8,21.5,30.01,East,83,2.0,4.0,87,0.00,,,0.00,Wunderground v.1.15,2013-03-05 11:59:00,
2013-03-05 07:02:00,24.8,21.5,30.02,East,94,1.0,1.0,87,0.00,,,0.00,Wunderground v.1.15,2013-03-05 12:02:00,
2013-03-05 07:03:00,24.8,21.5,30.02,SW,214,0.0,2.0,87,0.00,,,0.00,Wunderground v.1.15,2013-03-05 12:03:00,
2013-03-05 07:04:00,24.8,21.5,30.02,East,79,0.0,2.0,87,0.00,,,0.00,Wunderground v.1.15,2013-03-05 12:04:00,
2013-03-05 07:07:00,24.8,21.5,30.02,ESE,122,0.0,4.0,87,0.00,,,0.00,Wunderground v.1.15,2013-03-05 12:07:00,
2013-03-05 07:08:00,24.8,21.5,30.02,SSW,198,1.0,4.0,87,0.00,,,0.00,Wunderground v.1.15,2013-03-05 12:08:00,
2013-03-05 07:09:00,24.8,21.5,30.02,WSW,239,0.0,4.0,87,0.00,,,0.00,Wunderground v.1.15,2013-03-05 12:09:00,
2013-03-05 07:12:00,24.8,21.5,30.02,East,94,0.0,3.0,87,0.00,,,0.00,Wunderground v.1.15,2013-03-05 12:12:00,
2013-03-05 07:13:00,24.9,21.6,30.03,SE,138,0.0,3.0,87,0.00,,,0.00,Wunderground v.1.15,2013-03-05 12:13:00,
2013-03-05 07:14:00,24.9,21.6,30.02,ESE,109,1.0,3.0,87,0.00,,,0.00,Wunderground v.1.15,2013-03-05 12:14:00,
2013-03-05 07:17:00,25.0,21.7,30.03,SSE,165,2.0,3.0,87,0.00,,,0.00,Wunderground v.1.15,2013-03-05 12:17:00,
2013-03-05 07:18:00,25.0,21.7,30.03,WSW,243,0.0,3.0,87,0.00,,,0.00,Wunderground v.1.15,2013-03-05 12:18:00,
2013-03-05 07:20:00,25.1,21.8,30.03,ESE,106,0.0,1.0,87,0.00,,,0.00,Wunderground v.1.15,2013-03-05 12:20:00,
2013-03-05 07:22:00,25.3,22.0,30.03,WSW,246,0.0,2.0,87,0.00,,,0.00,Wunderground v.1.15,2013-03-05 12:22:00,
2013-03-05 07:23:00,25.4,22.1,30.03,WSW,246,1.0,2.0,87,0.00,,,0.00,Wunderground v.1.15,2013-03-05 12:23:00,
2013-03-05 07:25:00,25.5,21.9,30.03,SSW,207,1.0,2.0,86,0.00,,,0.00,Wunderground v.1.15,2013-03-05 12:25:00,
2013-03-05 07:27:00,25.6,22.0,30.03,ENE,77,1.0,4.0,86,0.00,,,0.00,Wunderground v.1.15,2013-03-05 12:27:00,
2013-03-05 07:28:00,25.6,22.0,30.03,East,82,1.0,4.0,86,0.00,,,0.00,Wunderground v.1.15,2013-03-05 12:28:00,
2013-03-05 07:30:00,25.7,22.1,30.03,SSW,200,0.0,1.0,86,0.00,,,0.00,Wunderground v.1.15,2013-03-05 12:30:00,
2013-03-05 07:32:00,25.8,22.2,30.03,NE,49,3.0,5.0,86,0.00,,,0.00,Wunderground v.1.15,2013-03-05 12:32:00,
2013-03-05 07:33:00,25.8,22.2,30.03,NE,49,1.0,5.0,86,0.00,,,0.00,Wunderground v.1.15,2013-03-05 12:33:00,
2013-03-05 07:35:00,25.9,22.0,30.04,South,172,0.0,5.0,85,0.00,,,0.00,Wunderground v.1.15,2013-03-05 12:35:00,
2013-03-05 07:37:00,26.0,22.1,30.04,SSW,210,0.0,5.0,85,0.00,,,0.00,Wunderground v.1.15,2013-03-05 12:37:00,
2013-03-05 07:38:00,26.0,22.1,30.04,SSW,210,0.0,5.0,85,0.00,,,0.00,Wunderground v.1.15,2013-03-05 12:38:00,
2013-03-05 07:40:00,26.1,22.2,30.04,SSE,156,0.0,1.0,85,0.00,,,0.00,Wunderground v.1.15,2013-03-05 12:40:00,
2013-03-05 07:43:00,26.2,22.3,30.04,SSE,156,0.0,1.0,85,0.00,,,0.00,Wunderground v.1.15,2013-03-05 12:43:00,
2013-03-05 07:44:00,26.2,22.3,30.04,SSE,156,0.0,1.0,85,0.00,,,0.00,Wunderground v.1.15,2013-03-05 12:44:00,
2013-03-05 07:45:00,26.2,22.3,30.04,SSE,156,0.0,1.0,85,0.00,,,0.00,Wunderground v.1.15,2013-03-05 12:45:00,
2013-03-05 07:48:00,26.2,22.0,30.04,SSE,158,0.0,1.0,84,0.00,,,0.00,Wunderground v.1.15,2013-03-05 12:48:00,
2013-03-05 07:49:00,26.2,22.3,30.04,SSE,158,0.0,1.0,85,0.00,,,0.00,Wunderground v.1.15,2013-03-05 12:49:00,
2013-03-05 07:50:00,26.3,22.4,30.04,SSE,158,0.0,0.0,85,0.00,,,0.00,Wunderground v.1.15,2013-03-05 12:50:00,
2013-03-05 07:53:00,26.5,22.6,30.04,SSE,148,0.0,2.0,85,0.00,,,0.00,Wunderground v.1.15,2013-03-05 12:53:00,
2013-03-05 07:54:00,26.6,22.7,30.04,SSE,148,0.0,2.0,85,0.00,,,0.00,Wunderground v.1.15,2013-03-05 12:54:00,
2013-03-05 07:55:00,26.9,23.0,30.04,South,172,2.0,2.0,85,0.00,,,0.00,Wunderground v.1.15,2013-03-05 12:55:00,
2013-03-05 07:58:00,27.2,23.0,30.05,SSW,197,4.0,4.0,84,0.00,,,0.00,Wunderground v.1.15,2013-03-05 12:58:00,
2013-03-05 07:59:00,27.4,23.2,30.05,South,171,1.0,5.0,84,0.00,,,0.00,Wunderground v.1.15,2013-03-05 12:59:00,
2013-03-05 08:02:00,27.9,23.4,30.05,ESE,114,2.0,3.0,83,0.00,,,0.00,Wunderground v.1.15,2013-03-05 13:02:00,
2013-03-05 08:03:00,28.0,23.5,30.05,ESE,108,0.0,3.0,83,0.00,,,0.00,Wunderground v.1.15,2013-03-05 13:03:00,
2013-03-05 08:04:00,28.1,23.6,30.05,SW,219,3.0,3.0,83,0.00,,,0.00,Wunderground v.1.15,2013-03-05 13:04:00,
2013-03-05 08:07:00,28.3,23.5,30.05,East,91,0.0,3.0,82,0.00,,,0.00,Wunderground v.1.15,2013-03-05 13:07:00,
2013-03-05 08:08:00,28.3,23.5,30.05,East,91,0.0,3.0,82,0.00,,,0.00,Wunderground v.1.15,2013-03-05 13:08:00,
2013-03-05 08:09:00,28.4,23.6,30.05,ESE,123,0.0,3.0,82,0.00,,,0.00,Wunderground v.1.15,2013-03-05 13:09:00,
2013-03-05 08:12:00,28.6,23.5,30.05,ENE,67,0.0,2.0,81,0.00,,,0.00,Wunderground v.1.15,2013-03-05 13:12:00,
2013-03-05 08:13:00,28.6,23.5,30.05,SW,214,1.0,2.0,81,0.00,,,0.00,Wunderground v.1.15,2013-03-05 13:13:00,
2013-03-05 08:14:00,28.6,23.5,30.06,SW,214,0.0,2.0,81,0.00,,,0.00,Wunderground v.1.15,2013-03-05 13:14:00,
2013-03-05 08:17:00,28.5,23.4,30.06,SE,129,1.0,3.0,81,0.00,,,0.00,Wunderground v.1.15,2013-03-05 13:17:00,
2013-03-05 08:18:00,28.5,23.4,30.06,SE,129,0.0,3.0,81,0.00,,,0.00,Wunderground v.1.15,2013-03-05 13:18:00,
2013-03-05 08:19:00,28.6,23.5,30.06,SE,129,0.0,3.0,81,0.00,,,0.00,Wunderground v.1.15,2013-03-05 13:19:00,
2013-03-05 08:22:00,28.6,23.5,30.06,West,264,1.0,2.0,81,0.00,,,0.00,Wunderground v.1.15,2013-03-05 13:22:00,
2013-03-05 08:23:00,28.6,23.5,30.06,West,264,0.0,2.0,81,0.00,,,0.00,Wunderground v.1.15,2013-03-05 13:23:00,
2013-03-05 08:24:00,28.7,23.6,30.06,SW,229,1.0,2.0,81,0.00,,,0.00,Wunderground v.1.15,2013-03-05 13:24:00,
2013-03-05 08:27:00,28.8,23.7,30.06,SW,224,0.0,2.0,81,0.00,,,0.00,Wunderground v.1.15,2013-03-05 13:27:00,
2013-03-05 08:29:00,28.9,23.8,30.06,WSW,248,1.0,2.0,81,0.00,,,0.00,Wunderground v.1.15,2013-03-05 13:29:00,
2013-03-05 08:32:00,29.0,23.9,30.06,ESE,107,0.0,3.0,81,0.00,,,0.00,Wunderground v.1.15,2013-03-05 13:32:00,
2013-03-05 08:34:00,29.0,23.9,30.06,SW,215,0.0,3.0,81,0.00,,,0.00,Wunderground v.1.15,2013-03-05 13:34:00,
2013-03-05 08:35:00,29.1,23.7,30.06,NNE,30,2.0,6.0,80,0.00,,,0.00,Wunderground v.1.15,2013-03-05 13:35:00,
2013-03-05 08:38:00,29.1,23.7,30.06,SW,224,3.0,6.0,80,0.00,,,0.00,Wunderground v.1.15,2013-03-05 13:38:00,
2013-03-05 08:39:00,29.0,23.6,30.06,South,179,0.0,6.0,80,0.00,,,0.00,Wunderground v.1.15,2013-03-05 13:39:00,
2013-03-05 08:40:00,29.0,23.6,30.07,East,89,2.0,2.0,80,0.00,,,0.00,Wunderground v.1.15,2013-03-05 13:40:00,
2013-03-05 08:43:00,28.8,23.7,30.06,SE,139,0.0,3.0,81,0.00,,,0.00,Wunderground v.1.15,2013-03-05 13:43:00,
2013-03-05 08:44:00,28.8,23.7,30.07,SE,140,0.0,3.0,81,0.00,,,0.00,Wunderground v.1.15,2013-03-05 13:44:00,
2013-03-05 08:45:00,28.8,23.7,30.06,East,101,2.0,3.0,81,0.00,,,0.00,Wunderground v.1.15,2013-03-05 13:45:00,
2013-03-05 08:48:00,28.7,23.6,30.06,SW,222,1.0,4.0,81,0.00,,,0.00,Wunderground v.1.15,2013-03-05 13:48:00,
2013-03-05 08:49:00,28.7,23.6,30.07,East,99,1.0,4.0,81,0.00,,,0.00,Wunderground v.1.15,2013-03-05 13:49:00,
2013-03-05 08:50:00,28.7,23.6,30.06,East,97,2.0,2.0,81,0.00,,,0.00,Wunderground v.1.15,2013-03-05 13:50:00,
2013-03-05 08:53:00,28.6,23.5,30.07,ESE,105,1.0,2.0,81,0.00,,,0.00,Wunderground v.1.15,2013-03-05 13:53:00,
2013-03-05 08:54:00,28.7,23.6,30.07,ESE,106,0.0,2.0,81,0.00,,,0.00,Wunderground v.1.15,2013-03-05 13:54:00,
2013-03-05 08:55:00,28.7,23.6,30.07,East,98,3.0,3.0,81,0.00,,,0.00,Wunderground v.1.15,2013-03-05 13:55:00,
2013-03-05 08:58:00,28.8,23.7,30.07,SE,146,1.0,4.0,81,0.00,,,0.00,Wunderground v.1.15,2013-03-05 13:58:00,
2013-03-05 08:59:00,28.7,23.6,30.07,WSW,246,0.0,4.0,81,0.00,,,0.00,Wunderground v.1.15,2013-03-05 13:59:00,
2013-03-05 09:01:00,28.8,23.7,30.07,WSW,246,0.0,1.0,81,0.00,,,0.00,Wunderground v.1.15,2013-03-05 14:01:00,
2013-03-05 09:02:00,28.8,23.7,30.07,WSW,246,0.0,1.0,81,0.00,,,0.00,Wunderground v.1.15,2013-03-05 14:02:00,
2013-03-05 09:03:00,28.9,23.8,30.07,SW,225,3.0,3.0,81,0.00,,,0.00,Wunderground v.1.15,2013-03-05 14:03:00,
2013-03-05 09:04:00,28.9,23.8,30.07,WSW,252,0.0,4.0,81,0.00,,,0.00,Wunderground v.1.15,2013-03-05 14:04:00,
2013-03-05 09:07:00,29.0,24.2,30.07,East,90,0.0,4.0,82,0.00,,,0.00,Wunderground v.1.15,2013-03-05 14:07:00,
2013-03-05 09:08:00,29.0,24.2,30.07,East,85,1.0,4.0,82,0.00,,,0.00,Wunderground v.1.15,2013-03-05 14:08:00,
2013-03-05 09:09:00,28.9,23.8,30.07,WSW,242,1.0,4.0,81,0.00,,,0.00,Wunderground v.1.15,2013-03-05 14:09:00,
2013-03-05 09:12:00,29.0,23.9,30.07,East,94,1.0,3.0,81,0.00,,,0.00,Wunderground v.1.15,2013-03-05 14:12:00,
2013-03-05 09:14:00,29.0,24.2,30.07,East,94,2.0,3.0,82,0.00,,,0.00,Wunderground v.1.15,2013-03-05 14:14:00,
2013-03-05 09:17:00,29.1,24.0,30.07,SE,130,0.0,5.0,81,0.00,,,0.00,Wunderground v.1.15,2013-03-05 14:17:00,
2013-03-05 09:19:00,29.2,24.1,30.07,East,86,1.0,5.0,81,0.00,,,0.00,Wunderground v.1.15,2013-03-05 14:19:00,
2013-03-05 09:20:00,29.3,24.2,30.07,ENE,71,1.0,1.0,81,0.00,,,0.00,Wunderground v.1.15,2013-03-05 14:20:00,
2013-03-05 09:22:00,29.4,24.3,30.07,East,84,0.0,3.0,81,0.00,,,0.00,Wunderground v.1.15,2013-03-05 14:22:00,
2013-03-05 09:24:00,29.5,24.4,30.07,SE,135,2.0,3.0,81,0.00,,,0.00,Wunderground v.1.15,2013-03-05 14:24:00,
2013-03-05 09:25:00,29.6,24.5,30.07,ENE,68,3.0,3.0,81,0.00,,,0.00,Wunderground v.1.15,2013-03-05 14:25:00,
2013-03-05 09:27:00,29.7,24.3,30.07,East,79,1.0,4.0,80,0.00,,,0.00,Wunderground v.1.15,2013-03-05 14:27:00,
2013-03-05 09:29:00,29.8,24.4,30.07,East,79,0.0,4.0,80,0.00,,,0.00,Wunderground v.1.15,2013-03-05 14:29:00,
2013-03-05 09:30:00,29.9,24.5,30.07,East,79,0.0,1.0,80,0.00,,,0.00,Wunderground v.1.15,2013-03-05 14:30:00,
2013-03-05 09:32:00,30.2,24.8,30.07,SE,136,0.0,1.0,80,0.00,,,0.00,Wunderground v.1.15,2013-03-05 14:32:00,
2013-03-05 09:33:00,30.2,24.8,30.07,SE,135,0.0,1.0,80,0.00,,,0.00,Wunderground v.1.15,2013-03-05 14:33:00,
2013-03-05 09:34:00,30.2,24.8,30.07,East,84,1.0,3.0,80,0.00,,,0.00,Wunderground v.1.15,2013-03-05 14:34:00,
2013-03-05 09:35:00,30.3,24.6,30.08,East,84,0.0,3.0,79,0.00,,,0.00,Wunderground v.1.15,2013-03-05 14:35:00,
2013-03-05 09:38:00,30.4,24.7,30.07,East,84,2.0,4.0,79,0.00,,,0.00,Wunderground v.1.15,2013-03-05 14:38:00,
2013-03-05 09:39:00,30.4,24.7,30.08,ESE,111,3.0,4.0,79,0.00,,,0.00,Wunderground v.1.15,2013-03-05 14:39:00,
2013-03-05 09:40:00,30.3,24.6,30.08,East,98,1.0,1.0,79,0.00,,,0.00,Wunderground v.1.15,2013-03-05 14:40:00,
2013-03-05 09:43:00,30.4,25.0,30.08,SE,143,0.0,1.0,80,0.00,,,0.00,Wunderground v.1.15,2013-03-05 14:43:00,
2013-03-05 09:44:00,30.5,24.8,30.08,WSW,249,2.0,3.0,79,0.00,,,0.00,Wunderground v.1.15,2013-03-05 14:44:00,
2013-03-05 09:45:00,30.5,24.8,30.08,SE,143,1.0,3.0,79,0.00,,,0.00,Wunderground v.1.15,2013-03-05 14:45:00,
2013-03-05 09:48:00,30.6,24.9,30.08,SSW,208,0.0,3.0,79,0.00,,,0.00,Wunderground v.1.15,2013-03-05 14:48:00,
2013-03-05 09:50:00,30.7,25.0,30.08,SW,229,1.0,1.0,79,0.00,,,0.00,Wunderground v.1.15,2013-03-05 14:50:00,
2013-03-05 09:53:00,30.8,25.1,30.08,SSW,207,1.0,2.0,79,0.00,,,0.00,Wunderground v.1.15,2013-03-05 14:53:00,
2013-03-05 09:55:00,30.9,25.2,30.07,SE,139,0.0,2.0,79,0.00,,,0.00,Wunderground v.1.15,2013-03-05 14:55:00,
2013-03-05 09:56:00,31.0,25.2,30.07,SSE,166,1.0,2.0,79,0.00,,,0.00,Wunderground v.1.15,2013-03-05 14:56:00,
2013-03-05 09:58:00,31.1,25.3,30.07,SW,232,3.0,8.0,79,0.00,,,0.00,Wunderground v.1.15,2013-03-05 14:58:00,
2013-03-05 09:59:00,31.0,24.9,30.07,WSW,240,1.0,8.0,78,0.00,,,0.00,Wunderground v.1.15,2013-03-05 14:59:00,
2013-03-05 10:01:00,31.1,25.0,30.07,SSE,154,0.0,1.0,78,0.00,,,0.00,Wunderground v.1.15,2013-03-05 15:01:00,
2013-03-05 10:03:00,31.1,25.3,30.07,SSE,165,1.0,2.0,79,0.00,,,0.00,Wunderground v.1.15,2013-03-05 15:03:00,
2013-03-05 10:04:00,31.1,25.3,30.07,SE,129,1.0,3.0,79,0.00,,,0.00,Wunderground v.1.15,2013-03-05 15:04:00,
2013-03-05 10:06:00,31.2,25.1,30.07,ENE,77,2.0,3.0,78,0.00,,,0.00,Wunderground v.1.15,2013-03-05 15:06:00,
2013-03-05 10:07:00,31.2,25.1,30.07,East,79,1.0,3.0,78,0.00,,,0.00,Wunderground v.1.15,2013-03-05 15:07:00,
2013-03-05 10:08:00,31.2,25.1,30.07,East,98,5.0,5.0,78,0.00,,,0.00,Wunderground v.1.15,2013-03-05 15:08:00,
2013-03-05 10:10:00,31.3,25.5,30.07,North,349,2.0,2.0,79,0.00,,,0.00,Wunderground v.1.15,2013-03-05 15:10:00,
2013-03-05 10:12:00,31.4,25.6,30.07,ESE,102,4.0,5.0,79,0.00,,,0.00,Wunderground v.1.15,2013-03-05 15:12:00,
2013-03-05 10:13:00,31.5,25.7,30.07,SW,229,2.0,5.0,79,0.00,,,0.00,Wunderground v.1.15,2013-03-05 15:13:00,
2013-03-05 10:15:00,31.7,25.6,30.07,ESE,108,2.0,5.0,78,0.00,,,0.00,Wunderground v.1.15,2013-03-05 15:15:00,
2013-03-05 10:17:00,31.8,25.7,30.07,East,101,2.0,5.0,78,0.00,,,0.00,Wunderground v.1.15,2013-03-05 15:17:00,
2013-03-05 10:19:00,31.9,25.5,30.07,NNE,27,1.0,6.0,77,0.00,,,0.00,Wunderground v.1.15,2013-03-05 15:19:00,
2013-03-05 10:20:00,32.1,25.4,30.07,NE,37,0.0,2.0,76,0.00,,,0.00,Wunderground v.1.15,2013-03-05 15:20:00,
2013-03-05 10:22:00,32.3,25.9,30.07,East,92,0.0,3.0,77,0.00,,,0.00,Wunderground v.1.15,2013-03-05 15:22:00,
2013-03-05 10:24:00,32.6,26.2,30.07,WSW,239,1.0,3.0,77,0.00,,,0.00,Wunderground v.1.15,2013-03-05 15:24:00,
2013-03-05 10:25:00,32.9,26.2,30.07,SSE,165,1.0,3.0,76,0.00,,,0.00,Wunderground v.1.15,2013-03-05 15:25:00,
2013-03-05 10:27:00,33.2,26.5,30.07,SW,231,1.0,3.0,76,0.00,,,0.00,Wunderground v.1.15,2013-03-05 15:27:00,
2013-03-05 10:28:00,33.2,26.1,30.07,WSW,256,1.0,3.0,75,0.00,,,0.00,Wunderground v.1.15,2013-03-05 15:28:00,
2013-03-05 10:29:00,33.3,26.2,30.07,SW,221,4.0,4.0,75,0.00,,,0.00,Wunderground v.1.15,2013-03-05 15:29:00,
2013-03-05 10:30:00,33.5,26.4,30.07,East,81,2.0,2.0,75,0.00,,,0.00,Wunderground v.1.15,2013-03-05 15:30:00,
2013-03-05 10:33:00,33.7,26.3,30.07,SSW,204,1.0,3.0,74,0.00,,,0.00,Wunderground v.1.15,2013-03-05 15:33:00,
2013-03-05 10:34:00,33.8,26.4,30.07,SSW,203,1.0,3.0,74,0.00,,,0.00,Wunderground v.1.15,2013-03-05 15:34:00,
2013-03-05 10:35:00,33.9,26.5,30.07,ENE,70,1.0,4.0,74,0.00,,,0.00,Wunderground v.1.15,2013-03-05 15:35:00,
2013-03-05 10:38:00,33.9,26.2,30.07,ESE,103,1.0,4.0,73,0.00,,,0.00,Wunderground v.1.15,2013-03-05 15:38:00,
2013-03-05 10:39:00,34.1,26.3,30.06,ENE,63,1.0,4.0,73,0.00,,,0.00,Wunderground v.1.15,2013-03-05 15:39:00,
2013-03-05 10:41:00,34.1,26.3,30.06,SE,131,1.0,1.0,73,0.00,,,0.00,Wunderground v.1.15,2013-03-05 15:41:00,
2013-03-05 10:43:00,34.3,26.5,30.06,SW,232,1.0,3.0,73,0.00,,,0.00,Wunderground v.1.15,2013-03-05 15:43:00,
2013-03-05 10:45:00,34.4,26.6,30.06,WSW,237,3.0,6.0,73,0.00,,,0.00,Wunderground v.1.15,2013-03-05 15:45:00,
2013-03-05 10:46:00,34.4,26.3,30.06,ESE,119,1.0,6.0,72,0.00,,,0.00,Wunderground v.1.15,2013-03-05 15:46:00,
2013-03-05 10:48:00,34.5,26.4,30.06,SSE,156,2.0,6.0,72,0.00,,,0.00,Wunderground v.1.15,2013-03-05 15:48:00,
2013-03-05 10:50:00,34.5,26.4,30.06,ENE,71,3.0,3.0,72,0.00,,,0.00,Wunderground v.1.15,2013-03-05 15:50:00,
2013-03-05 10:51:00,34.5,26.4,30.06,East,98,4.0,5.0,72,0.00,,,0.00,Wunderground v.1.15,2013-03-05 15:51:00,
2013-03-05 10:53:00,34.3,26.5,30.06,East,85,0.0,5.0,73,0.00,,,0.00,Wunderground v.1.15,2013-03-05 15:53:00,
2013-03-05 10:55:00,34.3,26.5,30.06,ENE,68,2.0,5.0,73,0.00,,,0.00,Wunderground v.1.15,2013-03-05 15:55:00,
2013-03-05 10:56:00,34.2,26.1,30.06,ENE,67,3.0,5.0,72,0.00,,,0.00,Wunderground v.1.15,2013-03-05 15:56:00,
2013-03-05 10:58:00,34.2,26.8,30.06,ESE,108,2.0,5.0,74,0.00,,,0.00,Wunderground v.1.15,2013-03-05 15:58:00,
2013-03-05 11:01:00,34.3,26.5,30.06,West,281,0.0,4.0,73,0.00,,,0.00,Wunderground v.1.15,2013-03-05 16:01:00,
2013-03-05 11:02:00,34.4,26.6,30.06,SSW,204,0.0,4.0,73,0.00,,,0.00,Wunderground v.1.15,2013-03-05 16:02:00,
2013-03-05 11:03:00,34.5,26.7,30.06,WSW,241,1.0,4.0,73,0.00,,,0.00,Wunderground v.1.15,2013-03-05 16:03:00,
2013-03-05 11:07:00,34.5,26.4,30.06,SW,224,1.0,4.0,72,0.00,,,0.00,Wunderground v.1.15,2013-03-05 16:07:00,
2013-03-05 11:08:00,34.5,26.7,30.06,SW,217,2.0,4.0,73,0.00,,,0.00,Wunderground v.1.15,2013-03-05 16:08:00,
2013-03-05 11:09:00,34.5,26.4,30.06,SE,141,0.0,4.0,72,0.00,,,0.00,Wunderground v.1.15,2013-03-05 16:09:00,
2013-03-05 11:12:00,34.7,26.6,30.06,SSE,167,0.0,2.0,72,0.00,,,0.00,Wunderground v.1.15,2013-03-05 16:12:00,
2013-03-05 11:13:00,35.1,27.3,30.06,South,174,0.0,2.0,73,0.00,,,0.00,Wunderground v.1.15,2013-03-05 16:13:00,
2013-03-05 11:14:00,35.2,27.4,30.06,SE,125,1.0,2.0,73,0.00,,,0.00,Wunderground v.1.15,2013-03-05 16:14:00,
2013-03-05 11:17:00,35.6,27.5,30.06,ESE,109,1.0,2.0,72,0.00,,,0.00,Wunderground v.1.15,2013-03-05 16:17:00,
2013-03-05 11:19:00,35.7,27.6,30.07,SE,136,0.0,2.0,72,0.00,,,0.00,Wunderground v.1.15,2013-03-05 16:19:00,
2013-03-05 11:22:00,35.8,27.0,30.07,WSW,240,0.0,4.0,70,0.00,,,0.00,Wunderground v.1.15,2013-03-05 16:22:00,
2013-03-05 11:24:00,36.0,27.2,30.07,ESE,116,1.0,4.0,70,0.00,,,0.00,Wunderground v.1.15,2013-03-05 16:24:00,
2013-03-05 11:27:00,36.1,27.3,30.07,South,190,1.0,4.0,70,0.00,,,0.00,Wunderground v.1.15,2013-03-05 16:27:00,
2013-03-05 11:29:00,36.4,27.5,30.07,ENE,75,2.0,4.0,70,0.00,,,0.00,Wunderground v.1.15,2013-03-05 16:29:00,
2013-03-05 11:32:00,36.6,27.4,30.07,East,98,1.0,4.0,69,0.00,,,0.00,Wunderground v.1.15,2013-03-05 16:32:00,
2013-03-05 11:34:00,37.0,27.4,30.07,ESE,110,3.0,8.0,68,0.00,,,0.00,Wunderground v.1.15,2013-03-05 16:34:00,
2013-03-05 11:37:00,37.3,28.1,30.07,SE,131,1.0,8.0,69,0.00,,,0.00,Wunderground v.1.15,2013-03-05 16:37:00,
2013-03-05 11:39:00,37.7,28.1,30.07,WSW,245,2.0,8.0,68,0.00,,,0.00,Wunderground v.1.15,2013-03-05 16:39:00,
2013-03-05 11:40:00,37.8,28.2,30.07,WSW,242,0.0,8.0,68,0.00,,,0.00,Wunderground v.1.15,2013-03-05 16:40:00,
2013-03-05 11:42:00,38.5,28.9,30.07,SE,125,1.0,4.0,68,0.00,,,0.00,Wunderground v.1.15,2013-03-05 16:42:00,
2013-03-05 11:44:00,38.5,27.7,30.07,SW,224,2.0,4.0,65,0.00,,,0.00,Wunderground v.1.15,2013-03-05 16:44:00,
2013-03-05 11:45:00,38.4,27.7,30.07,West,262,1.0,4.0,65,0.00,,,0.00,Wunderground v.1.15,2013-03-05 16:45:00,
2013-03-05 11:47:00,38.2,27.8,30.07,WSW,249,1.0,4.0,66,0.00,,,0.00,Wunderground v.1.15,2013-03-05 16:47:00,
2013-03-05 11:49:00,38.5,28.1,30.07,South,175,1.0,4.0,66,0.00,,,0.00,Wunderground v.1.15,2013-03-05 16:49:00,
2013-03-05 11:50:00,38.5,28.5,30.07,SSW,205,1.0,1.0,67,0.00,,,0.00,Wunderground v.1.15,2013-03-05 16:50:00,
2013-03-05 11:52:00,38.9,28.5,30.07,SE,136,0.0,1.0,66,0.00,,,0.00,Wunderground v.1.15,2013-03-05 16:52:00,
2013-03-05 11:53:00,38.8,28.4,30.07,SE,135,0.0,1.0,66,0.00,,,0.00,Wunderground v.1.15,2013-03-05 16:53:00,
2013-03-05 11:55:00,39.5,29.1,30.07,SE,135,1.0,1.0,66,0.00,,,0.00,Wunderground v.1.15,2013-03-05 16:55:00,
2013-03-05 11:58:00,40.1,28.5,30.07,East,79,1.0,3.0,63,0.00,,,0.00,Wunderground v.1.15,2013-03-05 16:58:00,
2013-03-05 12:00:00,39.8,28.6,30.07,SW,214,0.0,3.0,64,0.00,,,0.00,Wunderground v.1.15,2013-03-05 17:00:00,
2013-03-05 12:02:00,39.8,28.6,30.07,WSW,253,0.0,1.0,64,0.00,,,0.00,Wunderground v.1.15,2013-03-05 17:02:00,
2013-03-05 12:03:00,40.1,28.5,30.07,WSW,238,3.0,5.0,63,0.00,,,0.00,Wunderground v.1.15,2013-03-05 17:03:00,
2013-03-05 12:05:00,40.1,28.5,30.07,WSW,255,0.0,5.0,63,0.00,,,0.00,Wunderground v.1.15,2013-03-05 17:05:00,
2013-03-05 12:07:00,40.3,28.7,30.07,SSW,203,0.0,5.0,63,0.00,,,0.00,Wunderground v.1.15,2013-03-05 17:07:00,
2013-03-05 12:08:00,40.5,28.9,30.06,West,264,1.0,5.0,63,0.00,,,0.00,Wunderground v.1.15,2013-03-05 17:08:00,
2013-03-05 12:10:00,40.6,28.6,30.06,East,81,0.0,2.0,62,0.00,,,0.00,Wunderground v.1.15,2013-03-05 17:10:00,
2013-03-05 12:12:00,40.8,28.8,30.06,NE,39,2.0,3.0,62,0.00,,,0.00,Wunderground v.1.15,2013-03-05 17:12:00,
2013-03-05 12:13:00,40.8,28.8,30.07,SSE,150,2.0,3.0,62,0.00,,,0.00,Wunderground v.1.15,2013-03-05 17:13:00,
2013-03-05 12:15:00,41.2,28.8,30.06,SE,146,1.0,3.0,61,0.00,,,0.00,Wunderground v.1.15,2013-03-05 17:15:00,
2013-03-05 12:17:00,41.3,28.9,30.06,WSW,245,1.0,4.0,61,0.00,,,0.00,Wunderground v.1.15,2013-03-05 17:17:00,
2013-03-05 12:18:00,41.3,28.4,30.06,East,98,1.0,4.0,60,0.00,,,0.00,Wunderground v.1.15,2013-03-05 17:18:00,
2013-03-05 12:20:00,41.6,28.7,30.06,ENE,77,3.0,4.0,60,0.00,,,0.00,Wunderground v.1.15,2013-03-05 17:20:00,
2013-03-05 12:22:00,41.2,28.4,30.06,ESE,123,1.0,4.0,60,0.00,,,0.00,Wunderground v.1.15,2013-03-05 17:22:00,
2013-03-05 12:23:00,41.1,28.7,30.06,SSW,203,1.0,4.0,61,0.00,,,0.00,Wunderground v.1.15,2013-03-05 17:23:00,
2013-03-05 12:25:00,41.1,28.7,30.06,ESE,120,0.0,4.0,61,0.00,,,0.00,Wunderground v.1.15,2013-03-05 17:25:00,
2013-03-05 12:28:00,41.2,28.8,30.06,SSE,161,1.0,4.0,61,0.00,,,0.00,Wunderground v.1.15,2013-03-05 17:28:00,
2013-03-05 12:29:00,41.3,29.3,30.06,East,94,2.0,4.0,62,0.00,,,0.00,Wunderground v.1.15,2013-03-05 17:29:00,
2013-03-05 12:30:00,41.4,29.7,30.06,East,79,3.0,3.0,63,0.00,,,0.00,Wunderground v.1.15,2013-03-05 17:30:00,
2013-03-05 12:33:00,41.1,27.9,30.06,NE,46,3.0,6.0,59,0.00,,,0.00,Wunderground v.1.15,2013-03-05 17:33:00,
2013-03-05 12:34:00,40.8,28.0,30.06,East,85,4.0,6.0,60,0.00,,,0.00,Wunderground v.1.15,2013-03-05 17:34:00,
2013-03-05 12:35:00,40.6,28.2,30.06,ENE,75,0.0,6.0,61,0.00,,,0.00,Wunderground v.1.15,2013-03-05 17:35:00,
2013-03-05 12:38:00,40.7,28.7,30.06,SSW,211,0.0,6.0,62,0.00,,,0.00,Wunderground v.1.15,2013-03-05 17:38:00,
2013-03-05 12:39:00,40.9,28.9,30.06,SSE,153,1.0,6.0,62,0.00,,,0.00,Wunderground v.1.15,2013-03-05 17:39:00,
2013-03-05 12:41:00,41.4,28.9,30.06,NE,34,1.0,3.0,61,0.00,,,0.00,Wunderground v.1.15,2013-03-05 17:41:00,
2013-03-05 12:43:00,41.8,28.9,30.06,WSW,240,1.0,3.0,60,0.00,,,0.00,Wunderground v.1.15,2013-03-05 17:43:00,
2013-03-05 12:44:00,41.9,29.0,30.06,East,98,1.0,3.0,60,0.00,,,0.00,Wunderground v.1.15,2013-03-05 17:44:00,
2013-03-05 12:46:00,42.2,29.7,30.06,ESE,105,1.0,3.0,61,0.00,,,0.00,Wunderground v.1.15,2013-03-05 17:46:00,
2013-03-05 12:48:00,42.3,29.4,30.06,SSW,203,3.0,4.0,60,0.00,,,0.00,Wunderground v.1.15,2013-03-05 17:48:00,
2013-03-05 12:49:00,42.3,29.4,30.06,ENE,59,1.0,4.0,60,0.00,,,0.00,Wunderground v.1.15,2013-03-05 17:49:00,
2013-03-05 12:51:00,42.0,29.1,30.07,East,79,0.0,3.0,60,0.00,,,0.00,Wunderground v.1.15,2013-03-05 17:51:00,
2013-03-05 12:53:00,41.7,29.2,30.06,ENE,74,2.0,4.0,61,0.00,,,0.00,Wunderground v.1.15,2013-03-05 17:53:00,
2013-03-05 12:54:00,41.6,28.3,30.06,East,81,4.0,4.0,59,0.00,,,0.00,Wunderground v.1.15,2013-03-05 17:54:00,
2013-03-05 12:56:00,41.1,28.7,30.06,East,82,2.0,4.0,61,0.00,,,0.00,Wunderground v.1.15,2013-03-05 17:56:00,
2013-03-05 12:59:00,40.7,28.3,30.06,SW,216,1.0,4.0,61,0.00,,,0.00,Wunderground v.1.15,2013-03-05 17:59:00,
2013-03-05 13:01:00,40.7,27.9,30.06,SW,235,1.0,1.0,60,0.00,,,0.00,Wunderground v.1.15,2013-03-05 18:01:00,
2013-03-05 13:04:00,40.6,27.8,30.06,ESE,106,1.0,2.0,60,0.00,,,0.00,Wunderground v.1.15,2013-03-05 18:04:00,
2013-03-05 13:07:00,40.4,28.8,30.06,East,95,3.0,4.0,63,0.00,,,0.00,Wunderground v.1.15,2013-03-05 18:07:00,
2013-03-05 13:09:00,40.0,28.0,30.06,SSW,210,1.0,4.0,62,0.00,,,0.00,Wunderground v.1.15,2013-03-05 18:09:00,
2013-03-05 13:12:00,39.9,27.9,30.07,ENE,77,4.0,4.0,62,0.00,,,0.00,Wunderground v.1.15,2013-03-05 18:12:00,
2013-03-05 13:14:00,39.6,28.8,30.07,East,90,1.0,4.0,65,0.00,,,0.00,Wunderground v.1.15,2013-03-05 18:14:00,
2013-03-05 13:15:00,39.6,28.8,30.07,SE,146,1.0,4.0,65,0.00,,,0.00,Wunderground v.1.15,2013-03-05 18:15:00,
2013-03-05 13:17:00,39.6,28.4,30.07,ENE,70,1.0,4.0,64,0.00,,,0.00,Wunderground v.1.15,2013-03-05 18:17:00,
2013-03-05 13:20:00,39.4,27.8,30.07,ESE,102,0.0,1.0,63,0.00,,,0.00,Wunderground v.1.15,2013-03-05 18:20:00,
2013-03-05 13:22:00,39.3,28.1,30.07,East,89,2.0,2.0,64,0.00,,,0.00,Wunderground v.1.15,2013-03-05 18:22:00,
2013-03-05 13:25:00,39.3,28.1,30.07,East,99,0.0,3.0,64,0.00,,,0.00,Wunderground v.1.15,2013-03-05 18:25:00,
2013-03-05 13:26:00,39.3,28.5,30.07,East,92,2.0,3.0,65,0.00,,,0.00,Wunderground v.1.15,2013-03-05 18:26:00,
2013-03-05 13:27:00,39.3,28.5,30.07,East,94,2.0,3.0,65,0.00,,,0.00,Wunderground v.1.15,2013-03-05 18:27:00,
2013-03-05 13:30:00,39.1,28.3,30.07,West,273,0.0,1.0,65,0.00,,,0.00,Wunderground v.1.15,2013-03-05 18:30:00,
2013-03-05 13:31:00,39.1,28.3,30.07,West,277,1.0,1.0,65,0.00,,,0.00,Wunderground v.1.15,2013-03-05 18:31:00,
2013-03-05 13:32:00,39.0,28.2,30.07,East,101,2.0,2.0,65,0.00,,,0.00,Wunderground v.1.15,2013-03-05 18:32:00,
2013-03-05 13:35:00,38.7,27.6,30.07,East,84,3.0,3.0,64,0.00,,,0.00,Wunderground v.1.15,2013-03-05 18:35:00,
2013-03-05 13:36:00,38.7,27.6,30.07,East,94,1.0,3.0,64,0.00,,,0.00,Wunderground v.1.15,2013-03-05 18:36:00,
2013-03-05 13:37:00,38.6,27.8,30.08,East,89,2.0,3.0,65,0.00,,,0.00,Wunderground v.1.15,2013-03-05 18:37:00,
2013-03-05 13:40:00,38.6,27.8,30.08,East,86,2.0,2.0,65,0.00,,,0.00,Wunderground v.1.15,2013-03-05 18:40:00,
2013-03-05 13:41:00,38.6,27.5,30.08,East,95,2.0,2.0,64,0.00,,,0.00,Wunderground v.1.15,2013-03-05 18:41:00,
2013-03-05 13:43:00,38.6,27.8,30.08,SSE,162,1.0,3.0,65,0.00,,,0.00,Wunderground v.1.15,2013-03-05 18:43:00,
2013-03-05 13:45:00,38.7,27.9,30.08,SE,129,1.0,3.0,65,0.00,,,0.00,Wunderground v.1.15,2013-03-05 18:45:00,
2013-03-05 13:46:00,38.8,27.7,30.08,SE,130,1.0,3.0,64,0.00,,,0.00,Wunderground v.1.15,2013-03-05 18:46:00,
2013-03-05 13:48:00,38.9,27.4,30.08,WNW,291,0.0,3.0,63,0.00,,,0.00,Wunderground v.1.15,2013-03-05 18:48:00,
2013-03-05 13:50:00,38.8,27.3,30.08,ENE,65,2.0,5.0,63,0.00,,,0.00,Wunderground v.1.15,2013-03-05 18:50:00,
2013-03-05 13:51:00,38.8,27.3,30.08,East,79,5.0,7.0,63,0.00,,,0.00,Wunderground v.1.15,2013-03-05 18:51:00,
2013-03-05 13:53:00,38.6,27.5,30.08,ESE,103,4.0,7.0,64,0.00,,,0.00,Wunderground v.1.15,2013-03-05 18:53:00,
2013-03-05 13:55:00,38.5,27.4,30.08,ENE,72,2.0,7.0,64,0.00,,,0.00,Wunderground v.1.15,2013-03-05 18:55:00,
2013-03-05 13:56:00,38.4,27.3,30.08,East,89,4.0,7.0,64,0.00,,,0.00,Wunderground v.1.15,2013-03-05 18:56:00,
2013-03-05 13:58:00,38.4,27.7,30.08,East,95,2.0,7.0,65,0.00,,,0.00,Wunderground v.1.15,2013-03-05 18:58:00,
2013-03-05 14:01:00,38.5,27.7,30.08,ESE,103,3.0,3.0,65,0.00,,,0.00,Wunderground v.1.15,2013-03-05 19:01:00,
2013-03-05 14:05:00,38.5,27.4,30.08,ENE,67,0.0,3.0,64,0.00,,,0.00,Wunderground v.1.15,2013-03-05 19:05:00,
2013-03-05 14:06:00,38.6,27.8,30.08,East,94,1.0,3.0,65,0.00,,,0.00,Wunderground v.1.15,2013-03-05 19:06:00,
2013-03-05 14:10:00,38.8,28.0,30.08,ESE,113,0.0,3.0,65,0.00,,,0.00,Wunderground v.1.15,2013-03-05 19:10:00,
2013-03-05 14:11:00,38.9,27.8,30.08,East,92,1.0,2.0,64,0.00,,,0.00,Wunderground v.1.15,2013-03-05 19:11:00,
2013-03-05 14:12:00,38.9,27.8,30.08,East,84,3.0,3.0,64,0.00,,,0.00,Wunderground v.1.15,2013-03-05 19:12:00,
2013-03-05 14:15:00,38.9,27.4,30.08,ENE,72,2.0,4.0,63,0.00,,,0.00,Wunderground v.1.15,2013-03-05 19:15:00,
2013-03-05 14:17:00,38.9,27.8,30.08,East,81,2.0,4.0,64,0.00,,,0.00,Wunderground v.1.15,2013-03-05 19:17:00,
2013-03-05 14:20:00,39.0,27.5,30.08,ENE,68,0.0,4.0,63,0.00,,,0.00,Wunderground v.1.15,2013-03-05 19:20:00,
2013-03-05 14:22:00,39.1,27.9,30.08,East,81,0.0,2.0,64,0.00,,,0.00,Wunderground v.1.15,2013-03-05 19:22:00,
2013-03-05 14:25:00,39.3,28.1,30.08,SW,224,0.0,3.0,64,0.00,,,0.00,Wunderground v.1.15,2013-03-05 19:25:00,
2013-03-05 14:27:00,39.3,27.7,30.08,SE,125,2.0,3.0,63,0.00,,,0.00,Wunderground v.1.15,2013-03-05 19:27:00,
2013-03-05 14:31:00,39.5,27.9,30.09,ESE,105,1.0,1.0,63,0.00,,,0.00,Wunderground v.1.15,2013-03-05 19:31:00,
2013-03-05 14:32:00,39.5,27.9,30.09,SSE,163,0.0,1.0,63,0.00,,,0.00,Wunderground v.1.15,2013-03-05 19:32:00,
2013-03-05 14:36:00,39.6,28.0,30.09,ESE,102,0.0,4.0,63,0.00,,,0.00,Wunderground v.1.15,2013-03-05 19:36:00,
2013-03-05 14:37:00,39.5,28.3,30.09,East,101,0.0,4.0,64,0.00,,,0.00,Wunderground v.1.15,2013-03-05 19:37:00,
2013-03-05 14:41:00,39.5,28.3,30.09,SE,128,0.0,1.0,64,0.00,,,0.00,Wunderground v.1.15,2013-03-05 19:41:00,
2013-03-05 14:42:00,39.6,28.0,30.09,SE,129,0.0,1.0,63,0.00,,,0.00,Wunderground v.1.15,2013-03-05 19:42:00,
2013-03-05 14:46:00,39.8,28.2,30.09,East,89,1.0,3.0,63,0.00,,,0.00,Wunderground v.1.15,2013-03-05 19:46:00,
2013-03-05 14:47:00,39.8,28.6,30.09,ENE,70,2.0,3.0,64,0.00,,,0.00,Wunderground v.1.15,2013-03-05 19:47:00,
2013-03-05 14:51:00,39.7,28.5,30.09,East,99,1.0,1.0,64,0.00,,,0.00,Wunderground v.1.15,2013-03-05 19:51:00,
2013-03-05 14:52:00,39.7,28.1,30.09,East,98,0.0,1.0,63,0.00,,,0.00,Wunderground v.1.15,2013-03-05 19:52:00,
2013-03-05 14:53:00,39.7,27.7,30.09,East,98,0.0,1.0,62,0.00,,,0.00,Wunderground v.1.15,2013-03-05 19:53:00,
2013-03-05 14:56:00,39.8,28.2,30.09,ESE,105,2.0,2.0,63,0.00,,,0.00,Wunderground v.1.15,2013-03-05 19:56:00,
2013-03-05 14:57:00,39.9,27.9,30.09,East,82,0.0,2.0,62,0.00,,,0.00,Wunderground v.1.15,2013-03-05 19:57:00,
2013-03-05 14:58:00,39.8,27.8,30.09,East,82,0.0,2.0,62,0.00,,,0.00,Wunderground v.1.15,2013-03-05 19:58:00,
2013-03-05 15:02:00,39.6,28.4,30.09,ENE,77,2.0,2.0,64,0.00,,,0.00,Wunderground v.1.15,2013-03-05 20:02:00,
2013-03-05 15:03:00,39.6,27.6,30.09,East,82,1.0,3.0,62,0.00,,,0.00,Wunderground v.1.15,2013-03-05 20:03:00,
2013-03-05 15:04:00,39.6,28.4,30.09,ENE,70,1.0,3.0,64,0.00,,,0.00,Wunderground v.1.15,2013-03-05 20:04:00,
2013-03-05 15:07:00,39.3,28.1,30.09,East,82,2.0,3.0,64,0.00,,,0.00,Wunderground v.1.15,2013-03-05 20:07:00,
2013-03-05 15:08:00,39.3,28.1,30.09,ESE,102,0.0,3.0,64,0.00,,,0.00,Wunderground v.1.15,2013-03-05 20:08:00,
2013-03-05 15:09:00,39.3,28.5,30.09,East,101,0.0,3.0,65,0.00,,,0.00,Wunderground v.1.15,2013-03-05 20:09:00,
2013-03-05 15:12:00,39.3,28.1,30.09,SSE,150,0.0,3.0,64,0.00,,,0.00,Wunderground v.1.15,2013-03-05 20:12:00,
2013-03-05 15:13:00,39.3,28.1,30.09,SSE,150,0.0,3.0,64,0.00,,,0.00,Wunderground v.1.15,2013-03-05 20:13:00,
2013-03-05 15:14:00,39.4,27.8,30.09,SSE,150,0.0,3.0,63,0.00,,,0.00,Wunderground v.1.15,2013-03-05 20:14:00,
2013-03-05 15:17:00,39.2,28.8,30.09,ENE,61,2.0,3.0,66,0.00,,,0.00,Wunderground v.1.15,2013-03-05 20:17:00,
2013-03-05 15:18:00,39.2,28.8,30.09,ENE,61,1.0,3.0,66,0.00,,,0.00,Wunderground v.1.15,2013-03-05 20:18:00,
2013-03-05 15:19:00,39.2,27.7,30.09,ENE,67,1.0,3.0,63,0.00,,,0.00,Wunderground v.1.15,2013-03-05 20:19:00,
2013-03-05 15:22:00,39.1,27.9,30.09,East,96,1.0,2.0,64,0.00,,,0.00,Wunderground v.1.15,2013-03-05 20:22:00,
2013-03-05 15:23:00,39.1,27.9,30.10,East,96,0.0,2.0,64,0.00,,,0.00,Wunderground v.1.15,2013-03-05 20:23:00,
2013-03-05 15:24:00,39.1,27.6,30.10,East,96,0.0,2.0,63,0.00,,,0.00,Wunderground v.1.15,2013-03-05 20:24:00,
2013-03-05 15:27:00,39.2,28.4,30.10,WSW,246,1.0,2.0,65,0.00,,,0.00,Wunderground v.1.15,2013-03-05 20:27:00,
2013-03-05 15:28:00,39.2,28.4,30.10,WSW,239,2.0,2.0,65,0.00,,,0.00,Wunderground v.1.15,2013-03-05 20:28:00,
2013-03-05 15:29:00,39.2,28.0,30.10,ENE,75,2.0,3.0,64,0.00,,,0.00,Wunderground v.1.15,2013-03-05 20:29:00,
2013-03-05 15:32:00,39.2,28.0,30.10,East,81,0.0,2.0,64,0.00,,,0.00,Wunderground v.1.15,2013-03-05 20:32:00,
2013-03-05 15:33:00,39.2,28.0,30.10,East,81,0.0,2.0,64,0.00,,,0.00,Wunderground v.1.15,2013-03-05 20:33:00,
2013-03-05 15:34:00,39.2,28.0,30.10,East,81,0.0,2.0,64,0.00,,,0.00,Wunderground v.1.15,2013-03-05 20:34:00,
2013-03-05 15:37:00,39.3,28.1,30.09,ESE,117,0.0,2.0,64,0.00,,,0.00,Wunderground v.1.15,2013-03-05 20:37:00,
2013-03-05 15:38:00,39.3,27.7,30.10,ENE,75,2.0,2.0,63,0.00,,,0.00,Wunderground v.1.15,2013-03-05 20:38:00,
2013-03-05 15:39:00,39.3,27.7,30.10,ENE,68,1.0,2.0,63,0.00,,,0.00,Wunderground v.1.15,2013-03-05 20:39:00,
2013-03-05 15:42:00,39.2,28.0,30.10,ESE,103,0.0,3.0,64,0.00,,,0.00,Wunderground v.1.15,2013-03-05 20:42:00,
2013-03-05 15:43:00,39.1,28.3,30.10,ESE,103,0.0,3.0,65,0.00,,,0.00,Wunderground v.1.15,2013-03-05 20:43:00,
2013-03-05 15:44:00,39.1,28.7,30.10,ESE,103,0.0,3.0,66,0.00,,,0.00,Wunderground v.1.15,2013-03-05 20:44:00,
2013-03-05 15:45:00,39.1,28.7,30.10,ESE,103,0.0,3.0,66,0.00,,,0.00,Wunderground v.1.15,2013-03-05 20:45:00,
2013-03-05 15:47:00,39.2,28.4,30.10,ESE,103,0.0,3.0,65,0.00,,,0.00,Wunderground v.1.15,2013-03-05 20:47:00,
2013-03-05 15:49:00,39.1,29.1,30.10,ESE,103,0.0,3.0,67,0.00,,,0.00,Wunderground v.1.15,2013-03-05 20:49:00,
2013-03-05 15:50:00,39.1,28.7,30.10,ESE,103,0.0,3.0,66,0.00,,,0.00,Wunderground v.1.15,2013-03-05 20:50:00,
2013-03-05 15:52:00,39.1,27.9,30.10,East,101,0.0,1.0,64,0.00,,,0.00,Wunderground v.1.15,2013-03-05 20:52:00,
2013-03-05 15:54:00,39.1,28.7,30.10,ESE,102,0.0,1.0,66,0.00,,,0.00,Wunderground v.1.15,2013-03-05 20:54:00,
2013-03-05 15:55:00,39.1,29.1,30.10,SSE,156,0.0,1.0,67,0.00,,,0.00,Wunderground v.1.15,2013-03-05 20:55:00,
2013-03-05 15:57:00,38.9,28.9,30.10,East,94,1.0,2.0,67,0.00,,,0.00,Wunderground v.1.15,2013-03-05 20:57:00,
2013-03-05 15:59:00,38.8,28.4,30.10,East,79,2.0,2.0,66,0.00,,,0.00,Wunderground v.1.15,2013-03-05 20:59:00,
2013-03-05 16:00:00,38.8,28.4,30.10,East,85,1.0,1.0,66,0.00,,,0.00,Wunderground v.1.15,2013-03-05 21:00:00,
2013-03-05 16:02:00,38.7,27.6,30.10,East,101,0.0,1.0,64,0.00,,,0.00,Wunderground v.1.15,2013-03-05 21:02:00,
2013-03-05 16:04:00,38.7,27.6,30.10,East,101,0.0,1.0,64,0.00,,,0.00,Wunderground v.1.15,2013-03-05 21:04:00,
2013-03-05 16:05:00,38.7,27.6,30.11,East,101,0.0,1.0,64,0.00,,,0.00,Wunderground v.1.15,2013-03-05 21:05:00,
2013-03-05 16:07:00,38.7,28.7,30.11,East,101,0.0,1.0,67,0.00,,,0.00,Wunderground v.1.15,2013-03-05 21:07:00,
2013-03-05 16:08:00,38.7,29.0,30.11,East,101,0.0,1.0,68,0.00,,,0.00,Wunderground v.1.15,2013-03-05 21:08:00,
2013-03-05 16:10:00,38.6,28.9,30.11,East,100,0.0,1.0,68,0.00,,,0.00,Wunderground v.1.15,2013-03-05 21:10:00,
2013-03-05 16:13:00,38.5,29.2,30.11,East,101,0.0,0.0,69,0.00,,,0.00,Wunderground v.1.15,2013-03-05 21:13:00,
2013-03-05 16:15:00,38.4,29.1,30.11,East,101,0.0,0.0,69,0.00,,,0.00,Wunderground v.1.15,2013-03-05 21:15:00,
2013-03-05 16:18:00,38.2,28.6,30.11,ENE,75,0.0,3.0,68,0.00,,,0.00,Wunderground v.1.15,2013-03-05 21:18:00,
2013-03-05 16:20:00,38.1,28.8,30.11,ENE,78,0.0,0.0,69,0.00,,,0.00,Wunderground v.1.15,2013-03-05 21:20:00,
2013-03-05 16:23:00,38.0,29.1,30.11,ENE,77,0.0,0.0,70,0.00,,,0.00,Wunderground v.1.15,2013-03-05 21:23:00,
2013-03-05 16:25:00,37.9,28.6,30.11,ENE,77,0.0,0.0,69,0.00,,,0.00,Wunderground v.1.15,2013-03-05 21:25:00,
2013-03-05 16:28:00,37.7,28.4,30.11,ENE,77,0.0,0.0,69,0.00,,,0.00,Wunderground v.1.15,2013-03-05 21:28:00,
2013-03-05 16:30:00,37.7,29.5,30.11,ENE,78,0.0,0.0,72,0.00,,,0.00,Wunderground v.1.15,2013-03-05 21:30:00,
2013-03-05 16:33:00,37.6,28.7,30.11,SSE,166,0.0,3.0,70,0.00,,,0.00,Wunderground v.1.15,2013-03-05 21:33:00,
2013-03-05 16:35:00,37.5,28.2,30.12,SSE,166,0.0,3.0,69,0.00,,,0.00,Wunderground v.1.15,2013-03-05 21:35:00,
2013-03-05 16:38:00,37.4,28.5,30.12,SSW,194,0.0,3.0,70,0.00,,,0.00,Wunderground v.1.15,2013-03-05 21:38:00,
2013-03-05 16:40:00,37.3,28.8,30.12,SSW,194,0.0,0.0,71,0.00,,,0.00,Wunderground v.1.15,2013-03-05 21:40:00,
2013-03-05 16:41:00,37.3,28.8,30.12,SSW,194,0.0,0.0,71,0.00,,,0.00,Wunderground v.1.15,2013-03-05 21:41:00,
2013-03-05 16:43:00,37.3,29.1,30.12,SSW,194,0.0,0.0,72,0.00,,,0.00,Wunderground v.1.15,2013-03-05 21:43:00,
2013-03-05 16:44:00,37.3,29.1,30.12,SSW,195,0.0,0.0,72,0.00,,,0.00,Wunderground v.1.15,2013-03-05 21:44:00,
2013-03-05 16:45:00,37.2,28.7,30.12,SSW,194,0.0,0.0,71,0.00,,,0.00,Wunderground v.1.15,2013-03-05 21:45:00,
2013-03-05 16:46:00,37.2,28.7,30.12,SSW,194,0.0,0.0,71,0.00,,,0.00,Wunderground v.1.15,2013-03-05 21:46:00,
2013-03-05 16:48:00,37.1,28.9,30.12,SSW,194,0.0,0.0,72,0.00,,,0.00,Wunderground v.1.15,2013-03-05 21:48:00,
2013-03-05 16:49:00,37.0,28.8,30.12,SSW,194,0.0,0.0,72,0.00,,,0.00,Wunderground v.1.15,2013-03-05 21:49:00,
2013-03-05 16:50:00,36.9,28.7,30.12,SSW,194,0.0,0.0,72,0.00,,,0.00,Wunderground v.1.15,2013-03-05 21:50:00,
2013-03-05 16:51:00,36.9,28.7,30.12,SSW,195,0.0,0.0,72,0.00,,,0.00,Wunderground v.1.15,2013-03-05 21:51:00,
2013-03-05 16:54:00,36.8,28.6,30.12,SSW,194,0.0,0.0,72,0.00,,,0.00,Wunderground v.1.15,2013-03-05 21:54:00,
2013-03-05 16:55:00,36.7,28.9,30.12,ESE,112,1.0,1.0,73,0.00,,,0.00,Wunderground v.1.15,2013-03-05 21:55:00,
2013-03-05 16:56:00,36.7,28.9,30.13,ESE,108,0.0,1.0,73,0.00,,,0.00,Wunderground v.1.15,2013-03-05 21:56:00,
2013-03-05 16:59:00,36.6,28.4,30.12,SE,143,1.0,1.0,72,0.00,,,0.00,Wunderground v.1.15,2013-03-05 21:59:00,
2013-03-05 17:02:00,36.6,28.8,30.12,SW,214,0.0,1.0,73,0.00,,,0.00,Wunderground v.1.15,2013-03-05 22:02:00,
2013-03-05 17:04:00,36.5,29.0,30.13,SW,214,0.0,1.0,74,0.00,,,0.00,Wunderground v.1.15,2013-03-05 22:04:00,
2013-03-05 17:07:00,36.3,28.8,30.13,SW,214,0.0,1.0,74,0.00,,,0.00,Wunderground v.1.15,2013-03-05 22:07:00,
2013-03-05 17:09:00,36.3,28.8,30.13,SW,214,0.0,1.0,74,0.00,,,0.00,Wunderground v.1.15,2013-03-05 22:09:00,
2013-03-05 17:12:00,36.1,28.6,30.13,SW,214,0.0,0.0,74,0.00,,,0.00,Wunderground v.1.15,2013-03-05 22:12:00,
2013-03-05 17:14:00,36.0,28.8,30.13,SW,214,0.0,0.0,75,0.00,,,0.00,Wunderground v.1.15,2013-03-05 22:14:00,
2013-03-05 17:15:00,36.0,28.8,30.13,SW,214,0.0,0.0,75,0.00,,,0.00,Wunderground v.1.15,2013-03-05 22:15:00,
2013-03-05 17:17:00,35.9,28.7,30.13,SW,214,0.0,0.0,75,0.00,,,0.00,Wunderground v.1.15,2013-03-05 22:17:00,
2013-03-05 17:19:00,35.8,28.6,30.13,SW,214,0.0,0.0,75,0.00,,,0.00,Wunderground v.1.15,2013-03-05 22:19:00,
2013-03-05 17:20:00,35.8,28.6,30.13,SW,214,0.0,0.0,75,0.00,,,0.00,Wunderground v.1.15,2013-03-05 22:20:00,
2013-03-05 17:22:00,35.7,28.6,30.13,SW,214,0.0,0.0,75,0.00,,,0.00,Wunderground v.1.15,2013-03-05 22:22:00,
2013-03-05 17:23:00,35.7,28.6,30.13,SW,214,0.0,0.0,75,0.00,,,0.00,Wunderground v.1.15,2013-03-05 22:23:00,
2013-03-05 17:24:00,35.6,28.8,30.13,SW,214,0.0,0.0,76,0.00,,,0.00,Wunderground v.1.15,2013-03-05 22:24:00,
2013-03-05 17:25:00,35.6,28.8,30.13,SW,214,0.0,0.0,76,0.00,,,0.00,Wunderground v.1.15,2013-03-05 22:25:00,
2013-03-05 17:28:00,35.5,28.7,30.13,SW,214,0.0,0.0,76,0.00,,,0.00,Wunderground v.1.15,2013-03-05 22:28:00,
2013-03-05 17:29:00,35.5,28.7,30.13,SW,214,0.0,0.0,76,0.00,,,0.00,Wunderground v.1.15,2013-03-05 22:29:00,
2013-03-05 17:30:00,35.4,28.6,30.13,SSW,198,0.0,0.0,76,0.00,,,0.00,Wunderground v.1.15,2013-03-05 22:30:00,
2013-03-05 17:33:00,35.4,28.3,30.12,SSW,198,0.0,0.0,75,0.00,,,0.00,Wunderground v.1.15,2013-03-05 22:33:00,
2013-03-05 17:35:00,35.3,28.2,30.12,SSW,198,0.0,0.0,75,0.00,,,0.00,Wunderground v.1.15,2013-03-05 22:35:00,
2013-03-05 17:38:00,35.3,28.2,30.13,SSW,198,0.0,0.0,75,0.00,,,0.00,Wunderground v.1.15,2013-03-05 22:38:00,
2013-03-05 17:40:00,35.2,28.4,30.13,SSW,198,0.0,0.0,76,0.00,,,0.00,Wunderground v.1.15,2013-03-05 22:40:00,
2013-03-05 17:43:00,35.1,28.6,30.13,SSW,198,0.0,0.0,77,0.00,,,0.00,Wunderground v.1.15,2013-03-05 22:43:00,
2013-03-05 17:45:00,34.9,28.4,30.13,SSW,198,0.0,0.0,77,0.00,,,0.00,Wunderground v.1.15,2013-03-05 22:45:00,
2013-03-05 17:48:00,34.6,27.8,30.13,SSW,198,0.0,0.0,76,0.00,,,0.00,Wunderground v.1.15,2013-03-05 22:48:00,
2013-03-05 17:50:00,34.5,27.7,30.13,SSW,198,0.0,0.0,76,0.00,,,0.00,Wunderground v.1.15,2013-03-05 22:50:00,
2013-03-05 17:51:00,34.5,27.7,30.13,SSW,198,0.0,0.0,76,0.00,,,0.00,Wunderground v.1.15,2013-03-05 22:51:00,
2013-03-05 17:53:00,34.5,27.7,30.13,SSW,198,0.0,0.0,76,0.00,,,0.00,Wunderground v.1.15,2013-03-05 22:53:00,
2013-03-05 17:55:00,34.4,27.9,30.13,SSW,198,0.0,0.0,77,0.00,,,0.00,Wunderground v.1.15,2013-03-05 22:55:00,
2013-03-05 17:56:00,34.3,27.8,30.13,SSW,198,0.0,0.0,77,0.00,,,0.00,Wunderground v.1.15,2013-03-05 22:56:00,
2013-03-05 17:58:00,34.2,28.1,30.13,SSW,198,0.0,0.0,78,0.00,,,0.00,Wunderground v.1.15,2013-03-05 22:58:00,
2013-03-05 18:02:00,34.1,28.0,30.13,SSW,198,0.0,0.0,78,0.00,,,0.00,Wunderground v.1.15,2013-03-05 23:02:00,
2013-03-05 18:03:00,34.0,28.2,30.13,SSW,198,0.0,0.0,79,0.00,,,0.00,Wunderground v.1.15,2013-03-05 23:03:00,
2013-03-05 18:07:00,33.8,28.0,30.13,SSW,198,0.0,0.0,79,0.00,,,0.00,Wunderground v.1.15,2013-03-05 23:07:00,
2013-03-05 18:08:00,33.7,28.2,30.13,SSW,198,0.0,0.0,80,0.00,,,0.00,Wunderground v.1.15,2013-03-05 23:08:00,
2013-03-05 18:12:00,33.6,28.1,30.13,SSW,198,0.0,0.0,80,0.00,,,0.00,Wunderground v.1.15,2013-03-05 23:12:00,
2013-03-05 18:13:00,33.6,28.4,30.14,SSW,198,0.0,0.0,81,0.00,,,0.00,Wunderground v.1.15,2013-03-05 23:13:00,
2013-03-05 18:14:00,33.6,28.4,30.14,SSW,198,0.0,0.0,81,0.00,,,0.00,Wunderground v.1.15,2013-03-05 23:14:00,
2013-03-05 18:17:00,33.5,28.3,30.14,SSW,198,0.0,0.0,81,0.00,,,0.00,Wunderground v.1.15,2013-03-05 23:17:00,
2013-03-05 18:19:00,33.5,28.3,30.14,SSW,198,0.0,0.0,81,0.00,,,0.00,Wunderground v.1.15,2013-03-05 23:19:00,
2013-03-05 18:22:00,33.5,28.6,30.14,SSW,198,0.0,0.0,82,0.00,,,0.00,Wunderground v.1.15,2013-03-05 23:22:00,
2013-03-05 18:23:00,33.4,28.5,30.14,SSW,198,0.0,0.0,82,0.00,,,0.00,Wunderground v.1.15,2013-03-05 23:23:00,
2013-03-05 18:24:00,33.4,28.2,30.14,SSW,198,0.0,0.0,81,0.00,,,0.00,Wunderground v.1.15,2013-03-05 23:24:00,
2013-03-05 18:27:00,33.4,28.2,30.14,SSW,198,0.0,0.0,81,0.00,,,0.00,Wunderground v.1.15,2013-03-05 23:27:00,
2013-03-05 18:28:00,33.4,28.2,30.14,SSW,198,0.0,0.0,81,0.00,,,0.00,Wunderground v.1.15,2013-03-05 23:28:00,
2013-03-05 18:29:00,33.3,28.1,30.14,SSW,198,0.0,0.0,81,0.00,,,0.00,Wunderground v.1.15,2013-03-05 23:29:00,
2013-03-05 18:32:00,33.3,28.1,30.14,SSW,198,0.0,0.0,81,0.00,,,0.00,Wunderground v.1.15,2013-03-05 23:32:00,
2013-03-05 18:33:00,33.3,28.4,30.14,SSW,198,0.0,0.0,82,0.00,,,0.00,Wunderground v.1.15,2013-03-05 23:33:00,
2013-03-05 18:34:00,33.3,28.4,30.14,SSW,198,0.0,0.0,82,0.00,,,0.00,Wunderground v.1.15,2013-03-05 23:34:00,
2013-03-05 18:37:00,33.3,28.4,30.14,SSW,198,0.0,0.0,82,0.00,,,0.00,Wunderground v.1.15,2013-03-05 23:37:00,
2013-03-05 18:38:00,33.3,28.4,30.14,SSW,198,0.0,0.0,82,0.00,,,0.00,Wunderground v.1.15,2013-03-05 23:38:00,
2013-03-05 18:39:00,33.3,28.4,30.14,SSW,198,0.0,0.0,82,0.00,,,0.00,Wunderground v.1.15,2013-03-05 23:39:00,
2013-03-05 18:43:00,33.2,28.3,30.14,SSW,198,0.0,0.0,82,0.00,,,0.00,Wunderground v.1.15,2013-03-05 23:43:00,
2013-03-05 18:44:00,33.2,28.3,30.14,SSW,198,0.0,0.0,82,0.00,,,0.00,Wunderground v.1.15,2013-03-05 23:44:00,
2013-03-05 18:48:00,33.2,28.6,30.14,SSW,198,0.0,0.0,83,0.00,,,0.00,Wunderground v.1.15,2013-03-05 23:48:00,
2013-03-05 18:49:00,33.2,28.6,30.14,SSW,198,0.0,0.0,83,0.00,,,0.00,Wunderground v.1.15,2013-03-05 23:49:00,
2013-03-05 18:53:00,33.2,28.6,30.14,SSW,198,0.0,0.0,83,0.00,,,0.00,Wunderground v.1.15,2013-03-05 23:53:00,
2013-03-05 18:54:00,33.2,28.6,30.14,SSW,198,0.0,0.0,83,0.00,,,0.00,Wunderground v.1.15,2013-03-05 23:54:00,
2013-03-05 18:55:00,33.2,28.6,30.14,SSW,198,0.0,0.0,83,0.00,,,0.00,Wunderground v.1.15,2013-03-05 23:55:00,
2013-03-05 18:58:00,33.1,28.5,30.14,SSW,198,0.0,0.0,83,0.00,,,0.00,Wunderground v.1.15,2013-03-05 23:58:00,
2013-03-05 18:59:00,33.1,28.8,30.14,SSW,198,0.0,0.0,84,0.00,,,0.00,Wunderground v.1.15,2013-03-05 23:59:00,
2013-03-05 19:00:00,33.1,28.8,30.14,SSW,198,0.0,0.0,84,0.00,,,0.00,Wunderground v.1.15,2013-03-06 00:00:00,
2013-03-05 19:03:00,33.0,28.7,30.14,SSW,198,0.0,0.0,84,0.00,,,0.00,Wunderground v.1.15,2013-03-06 00:03:00,
2013-03-05 19:04:00,33.0,28.7,30.15,SSW,198,0.0,0.0,84,0.00,,,0.00,Wunderground v.1.15,2013-03-06 00:04:00,
2013-03-05 19:05:00,33.0,28.7,30.15,SSW,198,0.0,0.0,84,0.00,,,0.00,Wunderground v.1.15,2013-03-06 00:05:00,
2013-03-05 19:08:00,32.8,28.5,30.15,SSW,198,0.0,0.0,84,0.00,,,0.00,Wunderground v.1.15,2013-03-06 00:08:00,
2013-03-05 19:09:00,32.8,28.5,30.15,SSW,198,0.0,0.0,84,0.00,,,0.00,Wunderground v.1.15,2013-03-06 00:09:00,
2013-03-05 19:10:00,32.8,28.5,30.15,SSW,198,0.0,0.0,84,0.00,,,0.00,Wunderground v.1.15,2013-03-06 00:10:00,
2013-03-05 19:14:00,32.6,28.3,30.15,SSW,198,0.0,0.0,84,0.00,,,0.00,Wunderground v.1.15,2013-03-06 00:14:00,
2013-03-05 19:15:00,32.6,28.3,30.15,SSW,198,0.0,0.0,84,0.00,,,0.00,Wunderground v.1.15,2013-03-06 00:15:00,
2013-03-05 19:19:00,32.4,28.4,30.15,SSW,198,0.0,0.0,85,0.00,,,0.00,Wunderground v.1.15,2013-03-06 00:19:00,
2013-03-05 19:20:00,32.3,28.3,30.15,SSW,198,0.0,0.0,85,0.00,,,0.00,Wunderground v.1.15,2013-03-06 00:20:00,
2013-03-05 19:24:00,32.2,28.5,30.15,SSW,198,0.0,0.0,86,0.00,,,0.00,Wunderground v.1.15,2013-03-06 00:24:00,
2013-03-05 19:25:00,32.1,28.4,30.15,SSW,198,0.0,0.0,86,0.00,,,0.00,Wunderground v.1.15,2013-03-06 00:25:00,
2013-03-05 19:29:00,31.9,28.2,30.15,SSW,198,0.0,0.0,86,0.00,,,0.00,Wunderground v.1.15,2013-03-06 00:29:00,
2013-03-05 19:30:00,31.8,28.1,30.15,SSW,198,0.0,0.0,86,0.00,,,0.00,Wunderground v.1.15,2013-03-06 00:30:00,
2013-03-05 19:34:00,31.8,28.1,30.15,SSW,198,0.0,0.0,86,0.00,,,0.00,Wunderground v.1.15,2013-03-06 00:34:00,
2013-03-05 19:35:00,31.8,28.1,30.15,SSW,198,0.0,0.0,86,0.00,,,0.00,Wunderground v.1.15,2013-03-06 00:35:00,
2013-03-05 19:39:00,31.8,28.4,30.15,SSW,198,0.0,0.0,87,0.00,,,0.00,Wunderground v.1.15,2013-03-06 00:39:00,
2013-03-05 19:40:00,31.8,28.4,30.15,SSW,198,0.0,0.0,87,0.00,,,0.00,Wunderground v.1.15,2013-03-06 00:40:00,
2013-03-05 19:44:00,31.8,28.4,30.15,SSW,198,0.0,0.0,87,0.00,,,0.00,Wunderground v.1.15,2013-03-06 00:44:00,
2013-03-05 19:45:00,31.8,28.1,30.15,SSW,198,0.0,0.0,86,0.00,,,0.00,Wunderground v.1.15,2013-03-06 00:45:00,
2013-03-05 19:49:00,31.8,28.1,30.15,SSW,198,0.0,0.0,86,0.00,,,0.00,Wunderground v.1.15,2013-03-06 00:49:00,
2013-03-05 19:51:00,31.8,28.1,30.16,SSW,198,0.0,0.0,86,0.00,,,0.00,Wunderground v.1.15,2013-03-06 00:51:00,
2013-03-05 19:55:00,31.9,28.2,30.16,SSW,198,0.0,0.0,86,0.00,,,0.00,Wunderground v.1.15,2013-03-06 00:55:00,
2013-03-05 19:56:00,31.8,28.4,30.16,SSW,198,0.0,0.0,87,0.00,,,0.00,Wunderground v.1.15,2013-03-06 00:56:00,
2013-03-05 20:00:00,31.8,28.4,30.16,SSW,198,0.0,0.0,87,0.00,,,0.00,Wunderground v.1.15,2013-03-06 01:00:00,
2013-03-05 20:02:00,31.8,28.4,30.16,SSW,198,0.0,0.0,87,0.00,,,0.00,Wunderground v.1.15,2013-03-06 01:02:00,
2013-03-05 20:05:00,31.8,28.9,30.16,SSW,198,0.0,0.0,89,0.00,,,0.00,Wunderground v.1.15,2013-03-06 01:05:00,
2013-03-05 20:07:00,31.8,28.7,30.15,SSW,198,0.0,0.0,88,0.00,,,0.00,Wunderground v.1.15,2013-03-06 01:07:00,
2013-03-05 20:10:00,31.8,28.7,30.15,SSW,198,0.0,0.0,88,0.00,,,0.00,Wunderground v.1.15,2013-03-06 01:10:00,
2013-03-05 20:12:00,31.7,28.6,30.15,SSW,198,0.0,0.0,88,0.00,,,0.00,Wunderground v.1.15,2013-03-06 01:12:00,
2013-03-05 20:13:00,31.7,28.6,30.15,SSW,198,0.0,0.0,88,0.00,,,0.00,Wunderground v.1.15,2013-03-06 01:13:00,
2013-03-05 20:15:00,31.8,28.7,30.15,SSW,198,0.0,0.0,88,0.00,,,0.00,Wunderground v.1.15,2013-03-06 01:15:00,
2013-03-05 20:17:00,31.8,28.7,30.15,SSW,198,0.0,0.0,88,0.00,,,0.00,Wunderground v.1.15,2013-03-06 01:17:00,
2013-03-05 20:18:00,31.8,28.7,30.15,SSW,198,0.0,0.0,88,0.00,,,0.00,Wunderground v.1.15,2013-03-06 01:18:00,
2013-03-05 20:20:00,31.8,28.7,30.15,SSW,198,0.0,0.0,88,0.00,,,0.00,Wunderground v.1.15,2013-03-06 01:20:00,
2013-03-05 20:23:00,31.8,28.7,30.15,SSW,198,0.0,0.0,88,0.00,,,0.00,Wunderground v.1.15,2013-03-06 01:23:00,
2013-03-05 20:25:00,31.7,28.3,30.15,SSW,198,0.0,0.0,87,0.00,,,0.00,Wunderground v.1.15,2013-03-06 01:25:00,
2013-03-05 20:28:00,31.6,28.2,30.15,SSW,198,0.0,0.0,87,0.00,,,0.00,Wunderground v.1.15,2013-03-06 01:28:00,
2013-03-05 20:30:00,31.6,28.2,30.15,SSW,198,0.0,0.0,87,0.00,,,0.00,Wunderground v.1.15,2013-03-06 01:30:00,
2013-03-05 20:33:00,31.5,28.4,30.15,SSW,198,0.0,0.0,88,0.00,,,0.00,Wunderground v.1.15,2013-03-06 01:33:00,
2013-03-05 20:35:00,31.5,28.4,30.16,SSW,198,0.0,0.0,88,0.00,,,0.00,Wunderground v.1.15,2013-03-06 01:35:00,
2013-03-05 20:38:00,31.5,28.4,30.16,SSW,198,0.0,0.0,88,0.00,,,0.00,Wunderground v.1.15,2013-03-06 01:38:00,
2013-03-05 20:40:00,31.4,28.5,30.15,SSW,198,0.0,0.0,89,0.00,,,0.00,Wunderground v.1.15,2013-03-06 01:40:00,
2013-03-05 20:43:00,31.4,28.5,30.15,SSW,198,0.0,0.0,89,0.00,,,0.00,Wunderground v.1.15,2013-03-06 01:43:00,
2013-03-05 20:44:00,31.4,28.5,30.15,SSW,198,0.0,0.0,89,0.00,,,0.00,Wunderground v.1.15,2013-03-06 01:44:00,
2013-03-05 20:45:00,31.4,28.5,30.15,SSW,198,0.0,0.0,89,0.00,,,0.00,Wunderground v.1.15,2013-03-06 01:45:00,
2013-03-05 20:48:00,31.4,28.5,30.15,SSW,198,0.0,0.0,89,0.00,,,0.00,Wunderground v.1.15,2013-03-06 01:48:00,
2013-03-05 20:49:00,31.4,28.5,30.15,SSW,198,0.0,0.0,89,0.00,,,0.00,Wunderground v.1.15,2013-03-06 01:49:00,
2013-03-05 20:50:00,31.3,28.4,30.15,SSW,198,0.0,0.0,89,0.00,,,0.00,Wunderground v.1.15,2013-03-06 01:50:00,
2013-03-05 20:53:00,31.2,28.3,30.15,SSW,198,0.0,0.0,89,0.00,,,0.00,Wunderground v.1.15,2013-03-06 01:53:00,
2013-03-05 20:54:00,31.2,28.3,30.15,SSW,198,0.0,0.0,89,0.00,,,0.00,Wunderground v.1.15,2013-03-06 01:54:00,
2013-03-05 20:55:00,31.1,28.2,30.15,SSW,198,0.0,0.0,89,0.00,,,0.00,Wunderground v.1.15,2013-03-06 01:55:00,
2013-03-05 20:58:00,31.0,28.1,30.15,SSW,198,0.0,0.0,89,0.00,,,0.00,Wunderground v.1.15,2013-03-06 01:58:00,
2013-03-05 20:59:00,31.0,28.1,30.15,SSW,198,0.0,0.0,89,0.00,,,0.00,Wunderground v.1.15,2013-03-06 01:59:00,
2013-03-05 21:02:00,30.9,28.3,30.15,SSW,198,0.0,0.0,90,0.00,,,0.00,Wunderground v.1.15,2013-03-06 02:02:00,
2013-03-05 21:03:00,30.9,28.3,30.15,SSW,198,0.0,0.0,90,0.00,,,0.00,Wunderground v.1.15,2013-03-06 02:03:00,
2013-03-05 21:04:00,30.9,28.3,30.15,SSW,198,0.0,0.0,90,0.00,,,0.00,Wunderground v.1.15,2013-03-06 02:04:00,
2013-03-05 21:07:00,30.9,28.3,30.15,SSW,198,0.0,0.0,90,0.00,,,0.00,Wunderground v.1.15,2013-03-06 02:07:00,
2013-03-05 21:08:00,30.9,28.6,30.15,SSW,198,0.0,0.0,91,0.00,,,0.00,Wunderground v.1.15,2013-03-06 02:08:00,
2013-03-05 21:09:00,30.9,28.6,30.15,SSW,198,0.0,0.0,91,0.00,,,0.00,Wunderground v.1.15,2013-03-06 02:09:00,
2013-03-05 21:12:00,30.9,28.6,30.15,SSW,198,0.0,0.0,91,0.00,,,0.00,Wunderground v.1.15,2013-03-06 02:12:00,
2013-03-05 21:13:00,30.9,28.6,30.15,SSW,198,0.0,0.0,91,0.00,,,0.00,Wunderground v.1.15,2013-03-06 02:13:00,
2013-03-05 21:14:00,30.9,28.6,30.15,SSW,198,0.0,0.0,91,0.00,,,0.00,Wunderground v.1.15,2013-03-06 02:14:00,
2013-03-05 21:17:00,30.8,28.5,30.15,SSW,198,0.0,0.0,91,0.00,,,0.00,Wunderground v.1.15,2013-03-06 02:17:00,
2013-03-05 21:18:00,30.8,28.5,30.15,SSW,198,0.0,0.0,91,0.00,,,0.00,Wunderground v.1.15,2013-03-06 02:18:00,
2013-03-05 21:19:00,30.8,28.5,30.15,SSW,198,0.0,0.0,91,0.00,,,0.00,Wunderground v.1.15,2013-03-06 02:19:00,
2013-03-05 21:22:00,30.8,28.5,30.15,SSW,198,0.0,0.0,91,0.00,,,0.00,Wunderground v.1.15,2013-03-06 02:22:00,
2013-03-05 21:23:00,30.8,28.5,30.15,SSW,198,0.0,0.0,91,0.00,,,0.00,Wunderground v.1.15,2013-03-06 02:23:00,
2013-03-05 21:24:00,30.8,28.5,30.15,SSW,198,0.0,0.0,91,0.00,,,0.00,Wunderground v.1.15,2013-03-06 02:24:00,
2013-03-05 21:27:00,30.8,28.5,30.15,SSW,198,0.0,0.0,91,0.00,,,0.00,Wunderground v.1.15,2013-03-06 02:27:00,
2013-03-05 21:29:00,30.9,28.9,30.15,SSW,198,0.0,0.0,92,0.00,,,0.00,Wunderground v.1.15,2013-03-06 02:29:00,
2013-03-05 21:30:00,30.9,28.9,30.14,SSW,198,0.0,0.0,92,0.00,,,0.00,Wunderground v.1.15,2013-03-06 02:30:00,
2013-03-05 21:32:00,30.9,28.9,30.15,SSW,198,0.0,0.0,92,0.00,,,0.00,Wunderground v.1.15,2013-03-06 02:32:00,
2013-03-05 21:34:00,30.9,28.9,30.14,SSW,198,0.0,0.0,92,0.00,,,0.00,Wunderground v.1.15,2013-03-06 02:34:00,
2013-03-05 21:35:00,30.9,28.9,30.14,SSW,198,0.0,0.0,92,0.00,,,0.00,Wunderground v.1.15,2013-03-06 02:35:00,
2013-03-05 21:37:00,30.9,28.9,30.15,SSW,198,0.0,0.0,92,0.00,,,0.00,Wunderground v.1.15,2013-03-06 02:37:00,
2013-03-05 21:39:00,30.9,28.9,30.14,SSW,198,0.0,0.0,92,0.00,,,0.00,Wunderground v.1.15,2013-03-06 02:39:00,
2013-03-05 21:40:00,30.9,28.9,30.14,SSW,198,0.0,0.0,92,0.00,,,0.00,Wunderground v.1.15,2013-03-06 02:40:00,
2013-03-05 21:42:00,30.9,28.9,30.15,SSW,198,0.0,0.0,92,0.00,,,0.00,Wunderground v.1.15,2013-03-06 02:42:00,
2013-03-05 21:44:00,30.8,28.8,30.15,SSW,198,0.0,0.0,92,0.00,,,0.00,Wunderground v.1.15,2013-03-06 02:44:00,
2013-03-05 21:45:00,30.9,28.9,30.15,SSW,198,0.0,0.0,92,0.00,,,0.00,Wunderground v.1.15,2013-03-06 02:45:00,
2013-03-05 21:47:00,30.9,28.9,30.15,SSW,198,0.0,0.0,92,0.00,,,0.00,Wunderground v.1.15,2013-03-06 02:47:00,
2013-03-05 21:49:00,30.8,28.8,30.15,SSW,199,0.0,0.0,92,0.00,,,0.00,Wunderground v.1.15,2013-03-06 02:49:00,
2013-03-05 21:50:00,30.8,28.8,30.15,SSW,198,0.0,0.0,92,0.00,,,0.00,Wunderground v.1.15,2013-03-06 02:50:00,
2013-03-05 21:52:00,30.8,28.8,30.15,SSW,198,0.0,0.0,92,0.00,,,0.00,Wunderground v.1.15,2013-03-06 02:52:00,
2013-03-05 21:54:00,30.8,28.8,30.15,SSW,198,0.0,0.0,92,0.00,,,0.00,Wunderground v.1.15,2013-03-06 02:54:00,
2013-03-05 21:55:00,30.8,28.8,30.15,SSW,198,0.0,0.0,92,0.00,,,0.00,Wunderground v.1.15,2013-03-06 02:55:00,
2013-03-05 21:56:00,30.8,28.8,30.15,SSW,198,0.0,0.0,92,0.00,,,0.00,Wunderground v.1.15,2013-03-06 02:56:00,
2013-03-05 21:58:00,30.8,28.8,30.15,SSW,198,0.0,0.0,92,0.00,,,0.00,Wunderground v.1.15,2013-03-06 02:58:00,
2013-03-05 21:59:00,30.8,28.5,30.15,SSW,198,0.0,0.0,91,0.00,,,0.00,Wunderground v.1.15,2013-03-06 02:59:00,
2013-03-05 22:02:00,30.8,28.5,30.15,SSW,198,0.0,0.0,91,0.00,,,0.00,Wunderground v.1.15,2013-03-06 03:02:00,
2013-03-05 22:03:00,30.8,28.5,30.15,SSW,198,0.0,0.0,91,0.00,,,0.00,Wunderground v.1.15,2013-03-06 03:03:00,
2013-03-05 22:04:00,30.9,28.9,30.15,SSW,198,0.0,0.0,92,0.00,,,0.00,Wunderground v.1.15,2013-03-06 03:04:00,
2013-03-05 22:07:00,30.9,28.9,30.15,SSW,198,0.0,0.0,92,0.00,,,0.00,Wunderground v.1.15,2013-03-06 03:07:00,
2013-03-05 22:08:00,30.9,28.9,30.15,SSW,198,0.0,0.0,92,0.00,,,0.00,Wunderground v.1.15,2013-03-06 03:08:00,
2013-03-05 22:10:00,31.0,28.7,30.15,SSW,198,0.0,0.0,91,0.00,,,0.00,Wunderground v.1.15,2013-03-06 03:10:00,
2013-03-05 22:12:00,31.0,28.7,30.15,SSW,198,0.0,0.0,91,0.00,,,0.00,Wunderground v.1.15,2013-03-06 03:12:00,
2013-03-05 22:13:00,31.0,28.7,30.15,SSW,198,0.0,0.0,91,0.00,,,0.00,Wunderground v.1.15,2013-03-06 03:13:00,
2013-03-05 22:15:00,31.0,28.7,30.15,SSW,198,0.0,0.0,91,0.00,,,0.00,Wunderground v.1.15,2013-03-06 03:15:00,
2013-03-05 22:17:00,31.0,28.7,30.15,SSW,198,0.0,0.0,91,0.00,,,0.00,Wunderground v.1.15,2013-03-06 03:17:00,
2013-03-05 22:18:00,31.0,28.7,30.15,SSW,198,0.0,0.0,91,0.00,,,0.00,Wunderground v.1.15,2013-03-06 03:18:00,
2013-03-05 22:20:00,31.0,28.7,30.15,SSW,198,0.0,0.0,91,0.00,,,0.00,Wunderground v.1.15,2013-03-06 03:20:00,
2013-03-05 22:22:00,31.1,28.8,30.15,SSW,198,0.0,0.0,91,0.00,,,0.00,Wunderground v.1.15,2013-03-06 03:22:00,
2013-03-05 22:23:00,31.1,28.8,30.15,SSW,198,0.0,0.0,91,0.00,,,0.00,Wunderground v.1.15,2013-03-06 03:23:00,
2013-03-05 22:25:00,31.2,28.9,30.16,SSW,198,0.0,1.0,91,0.00,,,0.00,Wunderground v.1.15,2013-03-06 03:25:00,
2013-03-05 22:27:00,31.2,28.9,30.16,South,171,0.0,1.0,91,0.00,,,0.00,Wunderground v.1.15,2013-03-06 03:27:00,
2013-03-05 22:28:00,31.3,29.0,30.16,South,171,0.0,1.0,91,0.00,,,0.00,Wunderground v.1.15,2013-03-06 03:28:00,
2013-03-05 22:31:00,31.4,29.1,30.16,South,171,0.0,0.0,91,0.00,,,0.00,Wunderground v.1.15,2013-03-06 03:31:00,
2013-03-05 22:32:00,31.4,29.1,30.16,East,94,1.0,2.0,91,0.00,,,0.00,Wunderground v.1.15,2013-03-06 03:32:00,
2013-03-05 22:33:00,31.4,29.1,30.16,East,88,1.0,2.0,91,0.00,,,0.00,Wunderground v.1.15,2013-03-06 03:33:00,
2013-03-05 22:36:00,31.5,29.2,30.16,East,87,0.0,2.0,91,0.00,,,0.00,Wunderground v.1.15,2013-03-06 03:36:00,
2013-03-05 22:37:00,31.6,29.3,30.16,East,87,0.0,2.0,91,0.00,,,0.00,Wunderground v.1.15,2013-03-06 03:37:00,
2013-03-05 22:38:00,31.6,29.3,30.16,East,87,0.0,2.0,91,0.00,,,0.00,Wunderground v.1.15,2013-03-06 03:38:00,
2013-03-05 22:39:00,31.6,29.3,30.16,East,88,0.0,2.0,91,0.00,,,0.00,Wunderground v.1.15,2013-03-06 03:39:00,
2013-03-05 22:41:00,31.6,29.3,30.16,East,88,0.0,0.0,91,0.00,,,0.00,Wunderground v.1.15,2013-03-06 03:41:00,
2013-03-05 22:42:00,31.6,29.3,30.16,East,87,0.0,0.0,91,0.00,,,0.00,Wunderground v.1.15,2013-03-06 03:42:00,
2013-03-05 22:43:00,31.6,29.3,30.16,East,87,0.0,0.0,91,0.00,,,0.00,Wunderground v.1.15,2013-03-06 03:43:00,
2013-03-05 22:44:00,31.6,29.5,30.16,East,88,0.0,0.0,92,0.00,,,0.00,Wunderground v.1.15,2013-03-06 03:44:00,
2013-03-05 22:46:00,31.6,29.5,30.16,East,87,0.0,0.0,92,0.00,,,0.00,Wunderground v.1.15,2013-03-06 03:46:00,
2013-03-05 22:47:00,31.6,29.5,30.16,East,88,0.0,0.0,92,0.00,,,0.00,Wunderground v.1.15,2013-03-06 03:47:00,
2013-03-05 22:48:00,31.6,29.5,30.16,East,87,0.0,0.0,92,0.00,,,0.00,Wunderground v.1.15,2013-03-06 03:48:00,
2013-03-05 22:50:00,31.6,29.5,30.16,East,87,0.0,0.0,92,0.00,,,0.00,Wunderground v.1.15,2013-03-06 03:50:00,
2013-03-05 22:51:00,31.6,29.5,30.16,East,88,0.0,0.0,92,0.00,,,0.00,Wunderground v.1.15,2013-03-06 03:51:00,
2013-03-05 22:53:00,31.7,29.6,30.16,East,88,0.0,0.0,92,0.00,,,0.00,Wunderground v.1.15,2013-03-06 03:53:00,
2013-03-05 22:55:00,31.7,29.6,30.16,East,88,0.0,0.0,92,0.00,,,0.00,Wunderground v.1.15,2013-03-06 03:55:00,
2013-03-05 22:56:00,31.7,29.6,30.16,East,88,0.0,0.0,92,0.00,,,0.00,Wunderground v.1.15,2013-03-06 03:56:00,
2013-03-05 22:58:00,31.7,29.6,30.16,East,87,0.0,0.0,92,0.00,,,0.00,Wunderground v.1.15,2013-03-06 03:58:00,
2013-03-05 22:59:00,31.7,29.6,30.16,East,88,0.0,0.0,92,0.00,,,0.00,Wunderground v.1.15,2013-03-06 03:59:00,
2013-03-05 23:01:00,31.7,29.6,30.16,East,88,0.0,0.0,92,0.00,,,0.00,Wunderground v.1.15,2013-03-06 04:01:00,
2013-03-05 23:02:00,31.7,29.6,30.16,East,88,0.0,0.0,92,0.00,,,0.00,Wunderground v.1.15,2013-03-06 04:02:00,
2013-03-05 23:03:00,31.7,29.6,30.16,East,87,0.0,0.0,92,0.00,,,0.00,Wunderground v.1.15,2013-03-06 04:03:00,
2013-03-05 23:04:00,31.6,29.5,30.16,East,87,0.0,0.0,92,0.00,,,0.00,Wunderground v.1.15,2013-03-06 04:04:00,
2013-03-05 23:06:00,31.6,29.5,30.16,East,88,0.0,0.0,92,0.00,,,0.00,Wunderground v.1.15,2013-03-06 04:06:00,
2013-03-05 23:07:00,31.6,29.5,30.16,East,88,0.0,0.0,92,0.00,,,0.00,Wunderground v.1.15,2013-03-06 04:07:00,
2013-03-05 23:08:00,31.7,29.6,30.17,East,88,0.0,0.0,92,0.00,,,0.00,Wunderground v.1.15,2013-03-06 04:08:00,
2013-03-05 23:09:00,31.7,29.6,30.16,East,87,0.0,0.0,92,0.00,,,0.00,Wunderground v.1.15,2013-03-06 04:09:00,
2013-03-05 23:11:00,31.6,29.8,30.17,East,87,0.0,0.0,93,0.00,,,0.00,Wunderground v.1.15,2013-03-06 04:11:00,
2013-03-05 23:12:00,31.6,29.8,30.17,East,87,0.0,0.0,93,0.00,,,0.00,Wunderground v.1.15,2013-03-06 04:12:00,
2013-03-05 23:13:00,31.6,29.8,30.17,East,88,0.0,0.0,93,0.00,,,0.00,Wunderground v.1.15,2013-03-06 04:13:00,
2013-03-05 23:14:00,31.6,29.8,30.17,East,87,0.0,0.0,93,0.00,,,0.00,Wunderground v.1.15,2013-03-06 04:14:00,
2013-03-05 23:16:00,31.6,29.8,30.16,East,88,0.0,0.0,93,0.00,,,0.00,Wunderground v.1.15,2013-03-06 04:16:00,
2013-03-05 23:17:00,31.6,29.8,30.16,East,87,0.0,0.0,93,0.00,,,0.00,Wunderground v.1.15,2013-03-06 04:17:00,
2013-03-05 23:18:00,31.6,29.8,30.16,East,88,0.0,0.0,93,0.00,,,0.00,Wunderground v.1.15,2013-03-06 04:18:00,
2013-03-05 23:19:00,31.6,29.8,30.16,East,88,0.0,0.0,93,0.00,,,0.00,Wunderground v.1.15,2013-03-06 04:19:00,
2013-03-05 23:21:00,31.6,29.8,30.16,East,88,0.0,0.0,93,0.00,,,0.00,Wunderground v.1.15,2013-03-06 04:21:00,
2013-03-05 23:22:00,31.6,29.8,30.16,East,88,0.0,0.0,93,0.00,,,0.00,Wunderground v.1.15,2013-03-06 04:22:00,
2013-03-05 23:23:00,31.6,29.8,30.16,East,87,0.0,0.0,93,0.00,,,0.00,Wunderground v.1.15,2013-03-06 04:23:00,
2013-03-05 23:25:00,31.6,29.8,30.16,East,87,0.0,0.0,93,0.00,,,0.00,Wunderground v.1.15,2013-03-06 04:25:00,
2013-03-05 23:27:00,31.6,29.8,30.16,East,88,0.0,0.0,93,0.00,,,0.00,Wunderground v.1.15,2013-03-06 04:27:00,
2013-03-05 23:28:00,31.6,29.8,30.16,East,88,0.0,0.0,93,0.00,,,0.00,Wunderground v.1.15,2013-03-06 04:28:00,
2013-03-05 23:30:00,31.6,29.8,30.16,East,88,0.0,0.0,93,0.00,,,0.00,Wunderground v.1.15,2013-03-06 04:30:00,
2013-03-05 23:32:00,31.6,29.8,30.16,East,88,0.0,0.0,93,0.00,,,0.00,Wunderground v.1.15,2013-03-06 04:32:00,
2013-03-05 23:33:00,31.6,29.8,30.17,East,88,0.0,0.0,93,0.00,,,0.00,Wunderground v.1.15,2013-03-06 04:33:00,
2013-03-05 23:35:00,31.6,29.8,30.17,East,88,0.0,0.0,93,0.00,,,0.00,Wunderground v.1.15,2013-03-06 04:35:00,
2013-03-05 23:37:00,31.6,29.8,30.17,East,88,0.0,0.0,93,0.00,,,0.00,Wunderground v.1.15,2013-03-06 04:37:00,
2013-03-05 23:38:00,31.6,29.8,30.17,East,87,0.0,0.0,93,0.00,,,0.00,Wunderground v.1.15,2013-03-06 04:38:00,
2013-03-05 23:40:00,31.6,29.8,30.17,East,88,0.0,0.0,93,0.00,,,0.00,Wunderground v.1.15,2013-03-06 04:40:00,
2013-03-05 23:42:00,31.6,29.8,30.17,East,88,0.0,0.0,93,0.00,,,0.00,Wunderground v.1.15,2013-03-06 04:42:00,
2013-03-05 23:43:00,31.5,29.7,30.17,East,87,0.0,0.0,93,0.00,,,0.00,Wunderground v.1.15,2013-03-06 04:43:00,
2013-03-05 23:46:00,31.6,29.8,30.17,East,88,0.0,0.0,93,0.00,,,0.00,Wunderground v.1.15,2013-03-06 04:46:00,
2013-03-05 23:47:00,31.6,29.8,30.16,East,88,0.0,0.0,93,0.00,,,0.00,Wunderground v.1.15,2013-03-06 04:47:00,
2013-03-05 23:48:00,31.6,29.8,30.16,East,88,0.0,0.0,93,0.00,,,0.00,Wunderground v.1.15,2013-03-06 04:48:00,
2013-03-05 23:51:00,31.6,29.8,30.16,East,88,0.0,0.0,93,0.00,,,0.00,Wunderground v.1.15,2013-03-06 04:51:00,
2013-03-05 23:52:00,31.6,29.8,30.16,East,88,0.0,0.0,93,0.00,,,0.00,Wunderground v.1.15,2013-03-06 04:52:00,
2013-03-05 23:53:00,31.7,29.9,30.16,East,88,0.0,1.0,93,0.00,,,0.00,Wunderground v.1.15,2013-03-06 04:53:00,
2013-03-05 23:56:00,31.7,29.9,30.16,East,88,0.0,1.0,93,0.00,,,0.00,Wunderground v.1.15,2013-03-06 04:56:00,
2013-03-05 23:57:00,31.8,30.0,30.16,East,88,0.0,1.0,93,0.00,,,0.00,Wunderground v.1.15,2013-03-06 04:57:00,
2013-03-05 23:59:00,31.8,30.0,30.16,East,88,0.0,1.0,93,0.00,,,0.00,Wunderground v.1.15,2013-03-06 04:59:00,